VIR17 EGLL-KEWR
Flight info
| Callsign | VIR17 |
|---|---|
| Flight time | 6h 53m |
| Altitude | 38000 |
| Route | CPT L9 BUCGO DCT FELCA DCT OFSOX DCT SLANY DCT KURUM DCT INRAD DCT TOBOR/M080F390 NATG ALLRY/N0467F400 N468A TUSKY Q475 COPLY DCT BOS DCT NELIE FLOSI4 |
| Aircraft | A343/H-SDE2E3FGHIJ4J5M1RWXY/LB1D1 |
Departure
| Time | 2026-04-23 10:37 |
|---|---|
| Airport | London Heathrow Airport (EGLL) |
Arrival
| Time | 2026-04-23 17:31 |
|---|---|
| Airport | Newark Liberty International Airport (KEWR) |
| Time | Latitude | Longitude | Altitude | Speed | Heading |
|---|---|---|---|---|---|
| 2026-04-23 10:09 | 51.47022 | -0.46528 | 90 ft | 0 kts | 56° |
| 2026-04-23 10:25 | 51.47019 | -0.46534 | 94 ft | 3 kts | 56° |
| 2026-04-23 10:26 | 51.47004 | -0.46569 | 93 ft | 4 kts | 56° |
| 2026-04-23 10:26 | 51.46989 | -0.46605 | 92 ft | 4 kts | 56° |
| 2026-04-23 10:26 | 51.46977 | -0.46636 | 92 ft | 4 kts | 81° |
| 2026-04-23 10:26 | 51.46983 | -0.46662 | 92 ft | 4 kts | 157° |
| 2026-04-23 10:27 | 51.47006 | -0.46678 | 93 ft | 2 kts | 146° |
| 2026-04-23 10:27 | 51.47008 | -0.46679 | 93 ft | 0 kts | 145° |
| 2026-04-23 10:31 | 51.47005 | -0.46676 | 92 ft | 2 kts | 146° |
| 2026-04-23 10:31 | 51.46974 | -0.46642 | 94 ft | 8 kts | 146° |
| 2026-04-23 10:32 | 51.46921 | -0.46585 | 93 ft | 10 kts | 146° |
| 2026-04-23 10:32 | 51.46860 | -0.46517 | 94 ft | 11 kts | 146° |
| 2026-04-23 10:32 | 51.46787 | -0.46456 | 94 ft | 12 kts | 174° |
| 2026-04-23 10:32 | 51.46750 | -0.46537 | 93 ft | 12 kts | 262° |
| 2026-04-23 10:33 | 51.46747 | -0.46721 | 94 ft | 20 kts | 270° |
| 2026-04-23 10:33 | 51.46747 | -0.46953 | 94 ft | 21 kts | 270° |
| 2026-04-23 10:33 | 51.46746 | -0.47189 | 94 ft | 21 kts | 270° |
| 2026-04-23 10:33 | 51.46745 | -0.47429 | 90 ft | 22 kts | 269° |
| 2026-04-23 10:34 | 51.46744 | -0.47671 | 90 ft | 22 kts | 270° |
| 2026-04-23 10:34 | 51.46743 | -0.47913 | 90 ft | 22 kts | 270° |
| 2026-04-23 10:34 | 51.46743 | -0.48160 | 90 ft | 22 kts | 270° |
| 2026-04-23 10:34 | 51.46742 | -0.48388 | 90 ft | 12 kts | 268° |
| 2026-04-23 10:35 | 51.46703 | -0.48464 | 94 ft | 9 kts | 197° |
| 2026-04-23 10:35 | 51.46641 | -0.48466 | 90 ft | 8 kts | 180° |
| 2026-04-23 10:35 | 51.46616 | -0.48466 | 90 ft | 0 kts | 180° |
| 2026-04-23 10:35 | 51.46615 | -0.48466 | 90 ft | 0 kts | 180° |
| 2026-04-23 10:36 | 51.46576 | -0.48467 | 90 ft | 11 kts | 180° |
| 2026-04-23 10:36 | 51.46495 | -0.48447 | 93 ft | 10 kts | 140° |
| 2026-04-23 10:36 | 51.46480 | -0.48348 | 92 ft | 7 kts | 91° |
| 2026-04-23 10:36 | 51.46479 | -0.48224 | 92 ft | 26 kts | 90° |
| 2026-04-23 10:37 | 51.46481 | -0.47625 | 92 ft | 80 kts | 89° |
| 2026-04-23 10:37 | 51.46485 | -0.46483 | 96 ft | 123 kts | 90° |
| 2026-04-23 10:37 | 51.46478 | -0.44935 | 265 ft | 144 kts | 90° |
| 2026-04-23 10:37 | 51.46451 | -0.43330 | 751 ft | 143 kts | 88° |
| 2026-04-23 10:38 | 51.46290 | -0.41737 | 1201 ft | 154 kts | 111° |
| 2026-04-23 10:38 | 51.45439 | -0.40470 | 1497 ft | 186 kts | 154° |
| 2026-04-23 10:38 | 51.44073 | -0.40497 | 1845 ft | 219 kts | 200° |
| 2026-04-23 10:38 | 51.42761 | -0.41979 | 2299 ft | 247 kts | 218° |
| 2026-04-23 10:39 | 51.41519 | -0.43975 | 3068 ft | 254 kts | 221° |
| 2026-04-23 10:39 | 51.40518 | -0.46391 | 3823 ft | 269 kts | 247° |
| 2026-04-23 10:39 | 51.40100 | -0.49335 | 4718 ft | 274 kts | 259° |
| 2026-04-23 10:39 | 51.39848 | -0.52377 | 5580 ft | 277 kts | 261° |
| 2026-04-23 10:40 | 51.39616 | -0.55474 | 6393 ft | 282 kts | 261° |
| 2026-04-23 10:40 | 51.39376 | -0.58618 | 7175 ft | 287 kts | 261° |
| 2026-04-23 10:40 | 51.39164 | -0.61818 | 7933 ft | 291 kts | 267° |
| 2026-04-23 10:40 | 51.39485 | -0.65038 | 8691 ft | 296 kts | 287° |
| 2026-04-23 10:41 | 51.40169 | -0.68168 | 9457 ft | 300 kts | 290° |
| 2026-04-23 10:41 | 51.40917 | -0.71307 | 10236 ft | 302 kts | 291° |
| 2026-04-23 10:41 | 51.41595 | -0.74499 | 10865 ft | 308 kts | 285° |
| 2026-04-23 10:41 | 51.42180 | -0.77898 | 11191 ft | 324 kts | 284° |
| 2026-04-23 10:42 | 51.42750 | -0.81483 | 11465 ft | 340 kts | 284° |
| 2026-04-23 10:42 | 51.43336 | -0.85187 | 11851 ft | 353 kts | 284° |
| 2026-04-23 10:42 | 51.43950 | -0.89055 | 12285 ft | 364 kts | 284° |
| 2026-04-23 10:42 | 51.44585 | -0.93040 | 12737 ft | 372 kts | 284° |
| 2026-04-23 10:43 | 51.45229 | -0.97094 | 13305 ft | 378 kts | 284° |
| 2026-04-23 10:43 | 51.45884 | -1.01213 | 13919 ft | 383 kts | 284° |
| 2026-04-23 10:43 | 51.46544 | -1.05376 | 14534 ft | 387 kts | 284° |
| 2026-04-23 10:43 | 51.47210 | -1.09579 | 15117 ft | 390 kts | 284° |
| 2026-04-23 10:44 | 51.47880 | -1.13821 | 15734 ft | 392 kts | 285° |
| 2026-04-23 10:44 | 51.48562 | -1.18061 | 16414 ft | 394 kts | 287° |
| 2026-04-23 10:44 | 51.49643 | -1.22093 | 16987 ft | 394 kts | 304° |
| 2026-04-23 10:44 | 51.51311 | -1.25502 | 17663 ft | 393 kts | 314° |
| 2026-04-23 10:45 | 51.53230 | -1.28665 | 18205 ft | 396 kts | 318° |
| 2026-04-23 10:45 | 51.55258 | -1.31673 | 18854 ft | 397 kts | 320° |
| 2026-04-23 10:45 | 51.57327 | -1.34644 | 19406 ft | 399 kts | 321° |
| 2026-04-23 10:45 | 51.59373 | -1.37671 | 19992 ft | 400 kts | 316° |
| 2026-04-23 10:46 | 51.61120 | -1.41169 | 20586 ft | 403 kts | 306° |
| 2026-04-23 10:46 | 51.62630 | -1.44979 | 21151 ft | 404 kts | 303° |
| 2026-04-23 10:46 | 51.64031 | -1.48928 | 21692 ft | 406 kts | 301° |
| 2026-04-23 10:46 | 51.65372 | -1.52949 | 22215 ft | 408 kts | 300° |
| 2026-04-23 10:47 | 51.66692 | -1.57012 | 22687 ft | 411 kts | 300° |
| 2026-04-23 10:47 | 51.68014 | -1.61102 | 23195 ft | 412 kts | 300° |
| 2026-04-23 10:47 | 51.69302 | -1.65170 | 23660 ft | 415 kts | 297° |
| 2026-04-23 10:47 | 51.70275 | -1.69589 | 24116 ft | 421 kts | 286° |
| 2026-04-23 10:48 | 51.70846 | -1.74236 | 24502 ft | 424 kts | 282° |
| 2026-04-23 10:48 | 51.71277 | -1.78957 | 24857 ft | 427 kts | 280° |
| 2026-04-23 10:48 | 51.71635 | -1.83735 | 25231 ft | 429 kts | 279° |
| 2026-04-23 10:48 | 51.71961 | -1.88545 | 25598 ft | 431 kts | 279° |
| 2026-04-23 10:49 | 51.72278 | -1.93364 | 25957 ft | 433 kts | 279° |
| 2026-04-23 10:49 | 51.72597 | -1.98203 | 26294 ft | 434 kts | 278° |
| 2026-04-23 10:49 | 51.72923 | -2.03052 | 26646 ft | 436 kts | 278° |
| 2026-04-23 10:49 | 51.73256 | -2.07932 | 26984 ft | 438 kts | 278° |
| 2026-04-23 10:50 | 51.73593 | -2.12828 | 27321 ft | 439 kts | 279° |
| 2026-04-23 10:50 | 51.73929 | -2.17678 | 27650 ft | 441 kts | 279° |
| 2026-04-23 10:50 | 51.74269 | -2.22610 | 27980 ft | 443 kts | 278° |
| 2026-04-23 10:50 | 51.74608 | -2.27555 | 28299 ft | 444 kts | 278° |
| 2026-04-23 10:51 | 51.74947 | -2.32526 | 28600 ft | 446 kts | 278° |
| 2026-04-23 10:51 | 51.75285 | -2.37523 | 28900 ft | 448 kts | 278° |
| 2026-04-23 10:51 | 51.75621 | -2.42528 | 29190 ft | 449 kts | 278° |
| 2026-04-23 10:51 | 51.75957 | -2.47560 | 29478 ft | 451 kts | 278° |
| 2026-04-23 10:52 | 51.76292 | -2.52607 | 29735 ft | 453 kts | 278° |
| 2026-04-23 10:52 | 51.76628 | -2.57666 | 30015 ft | 454 kts | 278° |
| 2026-04-23 10:52 | 51.76851 | -2.61045 | 30167 ft | 456 kts | 278° |
| 2026-04-23 10:52 | 51.77294 | -2.67800 | 30557 ft | 457 kts | 278° |
| 2026-04-23 10:53 | 51.77622 | -2.72916 | 30804 ft | 458 kts | 278° |
| 2026-04-23 10:53 | 51.77843 | -2.76382 | 30939 ft | 460 kts | 277° |
| 2026-04-23 10:53 | 51.78169 | -2.81544 | 31218 ft | 462 kts | 277° |
| 2026-04-23 10:53 | 51.78490 | -2.86646 | 31429 ft | 463 kts | 277° |
| 2026-04-23 10:54 | 51.78814 | -2.91818 | 31726 ft | 462 kts | 277° |
| 2026-04-23 10:54 | 51.79135 | -2.96983 | 32063 ft | 461 kts | 277° |
| 2026-04-23 10:54 | 51.79453 | -3.02130 | 32354 ft | 460 kts | 277° |
| 2026-04-23 10:54 | 51.79769 | -3.07269 | 32614 ft | 459 kts | 277° |
| 2026-04-23 10:55 | 51.80082 | -3.12397 | 32883 ft | 459 kts | 277° |
| 2026-04-23 10:55 | 51.80393 | -3.17524 | 33189 ft | 458 kts | 277° |
| 2026-04-23 10:55 | 51.80701 | -3.22640 | 33466 ft | 456 kts | 277° |
| 2026-04-23 10:55 | 51.81006 | -3.27750 | 33738 ft | 455 kts | 277° |
| 2026-04-23 10:56 | 51.81307 | -3.32840 | 34011 ft | 454 kts | 278° |
| 2026-04-23 10:56 | 51.81606 | -3.37917 | 34287 ft | 453 kts | 278° |
| 2026-04-23 10:56 | 51.81902 | -3.42981 | 34522 ft | 452 kts | 277° |
| 2026-04-23 10:56 | 51.82195 | -3.48033 | 34733 ft | 452 kts | 277° |
| 2026-04-23 10:57 | 51.82537 | -3.53082 | 34883 ft | 451 kts | 281° |
| 2026-04-23 10:57 | 51.83093 | -3.57996 | 35074 ft | 450 kts | 282° |
| 2026-04-23 10:57 | 51.83704 | -3.62963 | 35226 ft | 451 kts | 283° |
| 2026-04-23 10:57 | 51.84336 | -3.67922 | 35501 ft | 449 kts | 283° |
| 2026-04-23 10:58 | 51.84976 | -3.72859 | 35684 ft | 448 kts | 283° |
| 2026-04-23 10:58 | 51.85615 | -3.77781 | 35972 ft | 445 kts | 283° |
| 2026-04-23 10:58 | 51.86888 | -3.87632 | 36283 ft | 446 kts | 283° |
| 2026-04-23 10:59 | 51.88152 | -3.97524 | 36429 ft | 450 kts | 282° |
| 2026-04-23 10:59 | 51.88780 | -4.02488 | 36613 ft | 450 kts | 282° |
| 2026-04-23 10:59 | 51.89403 | -4.07438 | 36839 ft | 448 kts | 282° |
| 2026-04-23 11:00 | 51.90024 | -4.12385 | 37013 ft | 447 kts | 282° |
| 2026-04-23 11:00 | 51.90640 | -4.17320 | 37196 ft | 447 kts | 282° |
| 2026-04-23 11:00 | 51.91863 | -4.27149 | 37413 ft | 449 kts | 282° |
| 2026-04-23 11:01 | 51.92476 | -4.32098 | 37647 ft | 447 kts | 282° |
| 2026-04-23 11:01 | 51.93085 | -4.37035 | 37819 ft | 446 kts | 282° |
| 2026-04-23 11:01 | 51.93691 | -4.41969 | 37971 ft | 445 kts | 282° |
| 2026-04-23 11:01 | 51.94296 | -4.46902 | 38006 ft | 448 kts | 282° |
| 2026-04-23 11:02 | 51.94900 | -4.51851 | 38136 ft | 448 kts | 282° |
| 2026-04-23 11:02 | 51.95503 | -4.56818 | 38141 ft | 450 kts | 282° |
| 2026-04-23 11:02 | 51.96105 | -4.61792 | 38360 ft | 449 kts | 281° |
| 2026-04-23 11:02 | 51.96704 | -4.66764 | 38382 ft | 450 kts | 282° |
| 2026-04-23 11:03 | 51.97884 | -4.76610 | 38378 ft | 446 kts | 282° |
| 2026-04-23 11:03 | 51.99063 | -4.86511 | 38376 ft | 447 kts | 281° |
| 2026-04-23 11:04 | 52.00234 | -4.96423 | 38388 ft | 449 kts | 280° |
| 2026-04-23 11:04 | 52.01408 | -5.06437 | 38388 ft | 453 kts | 280° |
| 2026-04-23 11:05 | 52.02584 | -5.16510 | 38386 ft | 454 kts | 281° |
| 2026-04-23 11:05 | 52.04300 | -5.26305 | 38387 ft | 454 kts | 287° |
| 2026-04-23 11:06 | 52.07228 | -5.40901 | 38384 ft | 453 kts | 288° |
| 2026-04-23 11:07 | 52.09201 | -5.50653 | 38388 ft | 453 kts | 288° |
| 2026-04-23 11:07 | 52.11156 | -5.60410 | 38388 ft | 454 kts | 287° |
| 2026-04-23 11:08 | 52.13098 | -5.70183 | 38387 ft | 454 kts | 287° |
| 2026-04-23 11:08 | 52.15022 | -5.79966 | 38384 ft | 453 kts | 286° |
| 2026-04-23 11:09 | 52.16052 | -5.89982 | 38388 ft | 452 kts | 275° |
| 2026-04-23 11:09 | 52.16495 | -6.00238 | 38385 ft | 455 kts | 271° |
| 2026-04-23 11:10 | 52.16832 | -6.10559 | 38387 ft | 456 kts | 271° |
| 2026-04-23 11:10 | 52.17161 | -6.20891 | 38388 ft | 457 kts | 271° |
| 2026-04-23 11:11 | 52.17498 | -6.31224 | 38384 ft | 456 kts | 271° |
| 2026-04-23 11:11 | 52.17832 | -6.41566 | 38387 ft | 457 kts | 271° |
| 2026-04-23 11:12 | 52.18158 | -6.51842 | 38381 ft | 457 kts | 271° |
| 2026-04-23 11:12 | 52.18475 | -6.62214 | 38377 ft | 458 kts | 271° |
| 2026-04-23 11:13 | 52.18784 | -6.72575 | 38372 ft | 458 kts | 270° |
| 2026-04-23 11:13 | 52.19083 | -6.82942 | 38376 ft | 458 kts | 271° |
| 2026-04-23 11:14 | 52.19373 | -6.93329 | 38384 ft | 458 kts | 270° |
| 2026-04-23 11:14 | 52.19654 | -7.03673 | 38373 ft | 456 kts | 270° |
| 2026-04-23 11:15 | 52.19923 | -7.13934 | 38375 ft | 456 kts | 270° |
| 2026-04-23 11:15 | 52.20186 | -7.24281 | 38375 ft | 456 kts | 271° |
| 2026-04-23 11:16 | 52.20438 | -7.34621 | 38370 ft | 456 kts | 270° |
| 2026-04-23 11:16 | 52.20681 | -7.44900 | 38363 ft | 456 kts | 268° |
| 2026-04-23 11:17 | 52.20916 | -7.55236 | 38344 ft | 455 kts | 270° |
| 2026-04-23 11:17 | 52.21144 | -7.65563 | 38344 ft | 455 kts | 268° |
| 2026-04-23 11:18 | 52.21359 | -7.75887 | 38336 ft | 455 kts | 270° |
| 2026-04-23 11:18 | 52.21566 | -7.86145 | 38336 ft | 455 kts | 269° |
| 2026-04-23 11:19 | 52.21763 | -7.96458 | 38326 ft | 455 kts | 268° |
| 2026-04-23 11:19 | 52.21952 | -8.06807 | 38322 ft | 456 kts | 268° |
| 2026-04-23 11:20 | 52.22133 | -8.17145 | 38314 ft | 456 kts | 268° |
| 2026-04-23 11:20 | 52.22305 | -8.27509 | 38314 ft | 456 kts | 268° |
| 2026-04-23 11:21 | 52.22466 | -8.37789 | 38293 ft | 456 kts | 269° |
| 2026-04-23 11:21 | 52.22620 | -8.48144 | 38293 ft | 456 kts | 268° |
| 2026-04-23 11:22 | 52.22766 | -8.58500 | 38292 ft | 456 kts | 268° |
| 2026-04-23 11:22 | 52.22910 | -8.68856 | 38276 ft | 457 kts | 270° |
| 2026-04-23 11:23 | 52.23466 | -8.79208 | 38283 ft | 459 kts | 273° |
| 2026-04-23 11:23 | 52.24217 | -8.89556 | 38284 ft | 459 kts | 273° |
| 2026-04-23 11:24 | 52.24906 | -8.99861 | 38271 ft | 461 kts | 272° |
| 2026-04-23 11:24 | 52.25540 | -9.10320 | 38272 ft | 464 kts | 272° |
| 2026-04-23 11:25 | 52.26165 | -9.20804 | 38267 ft | 464 kts | 273° |
| 2026-04-23 11:25 | 52.26853 | -9.31271 | 38267 ft | 464 kts | 272° |
| 2026-04-23 11:26 | 52.27543 | -9.41742 | 38266 ft | 464 kts | 273° |
| 2026-04-23 11:26 | 52.28218 | -9.52229 | 38266 ft | 465 kts | 272° |
| 2026-04-23 11:27 | 52.28875 | -9.62691 | 38267 ft | 466 kts | 272° |
| 2026-04-23 11:27 | 52.29527 | -9.73240 | 38266 ft | 466 kts | 272° |
| 2026-04-23 11:28 | 52.30170 | -9.83785 | 38264 ft | 466 kts | 272° |
| 2026-04-23 11:28 | 52.30803 | -9.94338 | 38280 ft | 466 kts | 272° |
| 2026-04-23 11:29 | 52.31428 | -10.04898 | 38260 ft | 466 kts | 271° |
| 2026-04-23 11:29 | 52.32041 | -10.15463 | 38260 ft | 467 kts | 271° |
| 2026-04-23 11:30 | 52.32642 | -10.25956 | 38267 ft | 467 kts | 271° |
| 2026-04-23 11:30 | 52.33240 | -10.36563 | 38260 ft | 468 kts | 271° |
| 2026-04-23 11:31 | 52.33828 | -10.47159 | 38260 ft | 468 kts | 271° |
| 2026-04-23 11:31 | 52.34407 | -10.57765 | 38254 ft | 468 kts | 271° |
| 2026-04-23 11:32 | 52.34976 | -10.68363 | 38255 ft | 468 kts | 271° |
| 2026-04-23 11:32 | 52.35537 | -10.78993 | 38249 ft | 468 kts | 271° |
| 2026-04-23 11:33 | 52.36087 | -10.89615 | 38252 ft | 468 kts | 271° |
| 2026-04-23 11:33 | 52.36625 | -11.00167 | 38259 ft | 468 kts | 270° |
| 2026-04-23 11:34 | 52.37157 | -11.10809 | 38245 ft | 469 kts | 270° |
| 2026-04-23 11:34 | 52.37681 | -11.21466 | 38247 ft | 469 kts | 270° |
| 2026-04-23 11:35 | 52.38194 | -11.32120 | 38242 ft | 469 kts | 270° |
| 2026-04-23 11:35 | 52.38698 | -11.42775 | 38241 ft | 469 kts | 270° |
| 2026-04-23 11:36 | 52.39189 | -11.53352 | 38246 ft | 469 kts | 269° |
| 2026-04-23 11:36 | 52.39674 | -11.64022 | 38239 ft | 470 kts | 269° |
| 2026-04-23 11:37 | 52.40150 | -11.74718 | 38239 ft | 470 kts | 269° |
| 2026-04-23 11:37 | 52.40617 | -11.85392 | 38237 ft | 470 kts | 269° |
| 2026-04-23 11:38 | 52.41074 | -11.96083 | 38235 ft | 471 kts | 269° |
| 2026-04-23 11:38 | 52.41524 | -12.06820 | 38228 ft | 473 kts | 269° |
| 2026-04-23 11:39 | 52.41960 | -12.17510 | 38224 ft | 474 kts | 268° |
| 2026-04-23 11:39 | 52.42392 | -12.28291 | 38224 ft | 474 kts | 268° |
| 2026-04-23 11:40 | 52.42813 | -12.39063 | 38221 ft | 474 kts | 268° |
| 2026-04-23 11:40 | 52.43224 | -12.49830 | 38213 ft | 474 kts | 268° |
| 2026-04-23 11:41 | 52.43626 | -12.60618 | 38214 ft | 475 kts | 268° |
| 2026-04-23 11:41 | 52.44019 | -12.71438 | 38206 ft | 475 kts | 268° |
| 2026-04-23 11:42 | 52.44338 | -12.80418 | 38209 ft | 475 kts | 267° |
| 2026-04-23 11:42 | 52.44714 | -12.91253 | 38198 ft | 475 kts | 267° |
| 2026-04-23 11:43 | 52.45076 | -13.01984 | 38201 ft | 475 kts | 267° |
| 2026-04-23 11:43 | 52.45431 | -13.12803 | 38194 ft | 476 kts | 267° |
| 2026-04-23 11:44 | 52.45776 | -13.23660 | 38193 ft | 477 kts | 267° |
| 2026-04-23 11:44 | 52.46114 | -13.34536 | 38183 ft | 477 kts | 266° |
| 2026-04-23 11:45 | 52.46442 | -13.45412 | 38171 ft | 477 kts | 266° |
| 2026-04-23 11:45 | 52.46759 | -13.56285 | 38213 ft | 477 kts | 266° |
| 2026-04-23 11:46 | 52.47064 | -13.67114 | 38169 ft | 480 kts | 266° |
| 2026-04-23 11:46 | 52.47363 | -13.78091 | 38167 ft | 481 kts | 266° |
| 2026-04-23 11:47 | 52.47653 | -13.89064 | 38156 ft | 481 kts | 266° |
| 2026-04-23 11:47 | 52.47933 | -14.00033 | 38154 ft | 481 kts | 266° |
| 2026-04-23 11:48 | 52.48201 | -14.10934 | 38166 ft | 481 kts | 266° |
| 2026-04-23 11:48 | 52.48459 | -14.21919 | 38145 ft | 482 kts | 266° |
| 2026-04-23 11:49 | 52.48708 | -14.32920 | 38134 ft | 482 kts | 266° |
| 2026-04-23 11:49 | 52.48948 | -14.43938 | 38133 ft | 482 kts | 266° |
| 2026-04-23 11:50 | 52.49178 | -14.54942 | 38128 ft | 482 kts | 266° |
| 2026-04-23 11:50 | 52.49396 | -14.65949 | 38128 ft | 483 kts | 265° |
| 2026-04-23 11:51 | 52.49605 | -14.76997 | 38120 ft | 484 kts | 265° |
| 2026-04-23 11:51 | 52.49804 | -14.88039 | 38123 ft | 484 kts | 265° |
| 2026-04-23 11:52 | 52.50076 | -14.99000 | 38257 ft | 487 kts | 271° |
| 2026-04-23 11:52 | 52.50592 | -15.04530 | 38376 ft | 490 kts | 274° |
| 2026-04-23 11:52 | 52.51201 | -15.10043 | 38508 ft | 491 kts | 275° |
| 2026-04-23 11:52 | 52.51852 | -15.15541 | 38658 ft | 492 kts | 276° |
| 2026-04-23 11:53 | 52.52525 | -15.21064 | 38708 ft | 493 kts | 276° |
| 2026-04-23 11:53 | 52.53880 | -15.32133 | 38893 ft | 494 kts | 276° |
| 2026-04-23 11:53 | 52.54549 | -15.37669 | 38997 ft | 493 kts | 276° |
| 2026-04-23 11:54 | 52.55211 | -15.43199 | 39082 ft | 493 kts | 276° |
| 2026-04-23 11:54 | 52.56514 | -15.54232 | 39100 ft | 496 kts | 276° |
| 2026-04-23 11:55 | 52.57817 | -15.65370 | 39097 ft | 494 kts | 276° |
| 2026-04-23 11:55 | 52.59104 | -15.76471 | 39098 ft | 493 kts | 276° |
| 2026-04-23 11:56 | 52.60378 | -15.87565 | 39085 ft | 493 kts | 276° |
| 2026-04-23 11:56 | 52.61634 | -15.98590 | 39085 ft | 493 kts | 276° |
| 2026-04-23 11:57 | 52.62889 | -16.09704 | 39072 ft | 493 kts | 275° |
| 2026-04-23 11:57 | 52.64132 | -16.20811 | 39068 ft | 493 kts | 275° |
| 2026-04-23 11:58 | 52.65366 | -16.31935 | 39067 ft | 494 kts | 275° |
| 2026-04-23 11:58 | 52.66586 | -16.43035 | 39064 ft | 495 kts | 275° |
| 2026-04-23 11:59 | 52.67805 | -16.54224 | 39048 ft | 495 kts | 275° |
| 2026-04-23 11:59 | 52.69014 | -16.65418 | 39056 ft | 495 kts | 275° |
| 2026-04-23 12:00 | 52.70210 | -16.76605 | 39046 ft | 495 kts | 275° |
| 2026-04-23 12:00 | 52.71398 | -16.87818 | 39052 ft | 496 kts | 275° |
| 2026-04-23 12:01 | 52.72568 | -16.98967 | 39031 ft | 496 kts | 275° |
| 2026-04-23 12:01 | 52.73736 | -17.10202 | 39033 ft | 496 kts | 275° |
| 2026-04-23 12:02 | 52.74891 | -17.21423 | 39016 ft | 496 kts | 275° |
| 2026-04-23 12:02 | 52.76038 | -17.32679 | 39017 ft | 497 kts | 275° |
| 2026-04-23 12:03 | 52.77175 | -17.43945 | 39020 ft | 497 kts | 275° |
| 2026-04-23 12:03 | 52.78297 | -17.55167 | 39016 ft | 498 kts | 275° |
| 2026-04-23 12:04 | 52.79415 | -17.66466 | 39001 ft | 498 kts | 275° |
| 2026-04-23 12:04 | 52.80522 | -17.77761 | 39004 ft | 497 kts | 275° |
| 2026-04-23 12:05 | 52.81619 | -17.89075 | 38993 ft | 497 kts | 275° |
| 2026-04-23 12:05 | 52.82704 | -18.00383 | 39000 ft | 498 kts | 275° |
| 2026-04-23 12:06 | 52.83778 | -18.11705 | 38980 ft | 499 kts | 275° |
| 2026-04-23 12:06 | 52.85367 | -18.28652 | 38975 ft | 499 kts | 275° |
| 2026-04-23 12:07 | 52.86418 | -18.40022 | 38976 ft | 499 kts | 274° |
| 2026-04-23 12:07 | 52.87458 | -18.51399 | 38966 ft | 499 kts | 275° |
| 2026-04-23 12:08 | 52.88488 | -18.62786 | 38964 ft | 500 kts | 274° |
| 2026-04-23 12:08 | 52.89503 | -18.74124 | 38952 ft | 500 kts | 274° |
| 2026-04-23 12:09 | 52.90512 | -18.85526 | 38952 ft | 500 kts | 274° |
| 2026-04-23 12:09 | 52.91511 | -18.96948 | 38939 ft | 500 kts | 274° |
| 2026-04-23 12:10 | 52.92491 | -19.08287 | 38956 ft | 500 kts | 274° |
| 2026-04-23 12:10 | 52.93467 | -19.19705 | 38927 ft | 501 kts | 274° |
| 2026-04-23 12:11 | 52.94433 | -19.31137 | 38929 ft | 501 kts | 274° |
| 2026-04-23 12:11 | 52.95389 | -19.42590 | 38925 ft | 501 kts | 274° |
| 2026-04-23 12:12 | 52.96334 | -19.54046 | 38924 ft | 501 kts | 274° |
| 2026-04-23 12:12 | 52.97268 | -19.65502 | 38922 ft | 501 kts | 274° |
| 2026-04-23 12:13 | 52.98191 | -19.76975 | 38911 ft | 502 kts | 274° |
| 2026-04-23 12:13 | 52.99104 | -19.88450 | 38903 ft | 502 kts | 274° |
| 2026-04-23 12:14 | 53.00006 | -19.99944 | 38903 ft | 502 kts | 274° |
| 2026-04-23 12:14 | 53.00995 | -20.11379 | 38895 ft | 502 kts | 275° |
| 2026-04-23 12:15 | 53.02078 | -20.22851 | 38899 ft | 502 kts | 275° |
| 2026-04-23 12:15 | 53.03145 | -20.34358 | 38883 ft | 503 kts | 275° |
| 2026-04-23 12:16 | 53.04174 | -20.45782 | 38884 ft | 503 kts | 275° |
| 2026-04-23 12:16 | 53.05191 | -20.57303 | 38878 ft | 503 kts | 275° |
| 2026-04-23 12:17 | 53.06196 | -20.68811 | 38874 ft | 503 kts | 275° |
| 2026-04-23 12:17 | 53.07192 | -20.80352 | 38884 ft | 503 kts | 275° |
| 2026-04-23 12:18 | 53.08175 | -20.91875 | 38865 ft | 503 kts | 275° |
| 2026-04-23 12:18 | 53.09141 | -21.03328 | 38870 ft | 503 kts | 275° |
| 2026-04-23 12:19 | 53.10104 | -21.14873 | 38870 ft | 503 kts | 275° |
| 2026-04-23 12:19 | 53.11054 | -21.26413 | 38857 ft | 503 kts | 275° |
| 2026-04-23 12:20 | 53.11993 | -21.37953 | 38861 ft | 503 kts | 275° |
| 2026-04-23 12:20 | 53.12921 | -21.49503 | 38853 ft | 502 kts | 274° |
| 2026-04-23 12:21 | 53.13837 | -21.61055 | 38247 ft | 504 kts | 274° |
| 2026-04-23 12:21 | 53.14286 | -21.66764 | 37965 ft | 503 kts | 274° |
| 2026-04-23 12:21 | 53.14735 | -21.72543 | 37847 ft | 503 kts | 274° |
| 2026-04-23 12:22 | 53.15622 | -21.84117 | 37846 ft | 504 kts | 274° |
| 2026-04-23 12:22 | 53.16504 | -21.95713 | 37865 ft | 504 kts | 274° |
| 2026-04-23 12:23 | 53.17377 | -22.07317 | 37837 ft | 504 kts | 274° |
| 2026-04-23 12:23 | 53.18240 | -22.18915 | 37831 ft | 504 kts | 274° |
| 2026-04-23 12:24 | 53.19088 | -22.30476 | 37834 ft | 504 kts | 274° |
| 2026-04-23 12:24 | 53.19929 | -22.42102 | 37822 ft | 504 kts | 274° |
| 2026-04-23 12:25 | 53.20759 | -22.53728 | 37824 ft | 504 kts | 274° |
| 2026-04-23 12:25 | 53.21572 | -22.65291 | 37825 ft | 504 kts | 274° |
| 2026-04-23 12:26 | 53.22380 | -22.76939 | 37817 ft | 504 kts | 274° |
| 2026-04-23 12:26 | 53.23175 | -22.88581 | 37817 ft | 504 kts | 274° |
| 2026-04-23 12:27 | 53.23960 | -23.00223 | 37813 ft | 504 kts | 274° |
| 2026-04-23 12:27 | 53.24733 | -23.11881 | 37812 ft | 504 kts | 274° |
| 2026-04-23 12:28 | 53.25489 | -23.23459 | 37808 ft | 504 kts | 274° |
| 2026-04-23 12:28 | 53.26239 | -23.35113 | 37809 ft | 505 kts | 274° |
| 2026-04-23 12:29 | 53.26855 | -23.44822 | 37796 ft | 505 kts | 274° |
| 2026-04-23 12:29 | 53.27584 | -23.56477 | 37798 ft | 505 kts | 274° |
| 2026-04-23 12:30 | 53.28303 | -23.68158 | 37791 ft | 505 kts | 274° |
| 2026-04-23 12:30 | 53.29010 | -23.79839 | 37799 ft | 505 kts | 274° |
| 2026-04-23 12:31 | 53.29706 | -23.91533 | 37785 ft | 505 kts | 274° |
| 2026-04-23 12:31 | 53.30390 | -24.03221 | 37785 ft | 505 kts | 273° |
| 2026-04-23 12:32 | 53.31058 | -24.14831 | 37774 ft | 505 kts | 273° |
| 2026-04-23 12:32 | 53.31720 | -24.26537 | 37785 ft | 505 kts | 273° |
| 2026-04-23 12:33 | 53.32372 | -24.38266 | 37780 ft | 505 kts | 273° |
| 2026-04-23 12:33 | 53.33010 | -24.49954 | 37773 ft | 505 kts | 273° |
| 2026-04-23 12:34 | 53.33638 | -24.61684 | 37773 ft | 505 kts | 273° |
| 2026-04-23 12:34 | 53.34253 | -24.73385 | 37773 ft | 505 kts | 273° |
| 2026-04-23 12:35 | 53.34854 | -24.85037 | 37762 ft | 505 kts | 273° |
| 2026-04-23 12:35 | 53.35446 | -24.96748 | 37770 ft | 505 kts | 273° |
| 2026-04-23 12:36 | 53.36029 | -25.08490 | 37760 ft | 506 kts | 273° |
| 2026-04-23 12:36 | 53.36600 | -25.20241 | 37759 ft | 506 kts | 272° |
| 2026-04-23 12:37 | 53.37159 | -25.32012 | 37750 ft | 506 kts | 272° |
| 2026-04-23 12:37 | 53.37708 | -25.43774 | 37760 ft | 506 kts | 272° |
| 2026-04-23 12:38 | 53.38241 | -25.55459 | 37748 ft | 506 kts | 272° |
| 2026-04-23 12:38 | 53.38765 | -25.67208 | 37749 ft | 506 kts | 272° |
| 2026-04-23 12:39 | 53.39279 | -25.78980 | 37741 ft | 506 kts | 272° |
| 2026-04-23 12:39 | 53.39781 | -25.90754 | 37742 ft | 506 kts | 272° |
| 2026-04-23 12:40 | 53.40272 | -26.02521 | 37734 ft | 506 kts | 272° |
| 2026-04-23 12:40 | 53.40750 | -26.14287 | 37738 ft | 506 kts | 272° |
| 2026-04-23 12:41 | 53.41216 | -26.26052 | 37730 ft | 506 kts | 272° |
| 2026-04-23 12:41 | 53.41669 | -26.37762 | 37731 ft | 506 kts | 272° |
| 2026-04-23 12:42 | 53.42113 | -26.49545 | 37723 ft | 506 kts | 272° |
| 2026-04-23 12:42 | 53.42546 | -26.61340 | 37731 ft | 506 kts | 272° |
| 2026-04-23 12:43 | 53.42967 | -26.73135 | 37734 ft | 506 kts | 272° |
| 2026-04-23 12:43 | 53.43374 | -26.84842 | 37710 ft | 505 kts | 271° |
| 2026-04-23 12:44 | 53.43771 | -26.96621 | 37737 ft | 505 kts | 271° |
| 2026-04-23 12:44 | 53.44156 | -27.08398 | 37727 ft | 505 kts | 271° |
| 2026-04-23 12:45 | 53.44530 | -27.20187 | 37721 ft | 506 kts | 271° |
| 2026-04-23 12:45 | 53.44891 | -27.31930 | 37731 ft | 506 kts | 271° |
| 2026-04-23 12:46 | 53.45242 | -27.43717 | 37721 ft | 506 kts | 271° |
| 2026-04-23 12:46 | 53.45582 | -27.55521 | 37722 ft | 506 kts | 271° |
| 2026-04-23 12:47 | 53.45909 | -27.67300 | 37717 ft | 506 kts | 271° |
| 2026-04-23 12:47 | 53.46226 | -27.79099 | 37723 ft | 506 kts | 271° |
| 2026-04-23 12:48 | 53.46528 | -27.90823 | 37739 ft | 505 kts | 271° |
| 2026-04-23 12:48 | 53.46821 | -28.02621 | 37718 ft | 505 kts | 271° |
| 2026-04-23 12:49 | 53.47102 | -28.14390 | 37698 ft | 504 kts | 270° |
| 2026-04-23 12:49 | 53.47371 | -28.26186 | 37720 ft | 505 kts | 270° |
| 2026-04-23 12:50 | 53.47629 | -28.37970 | 37711 ft | 505 kts | 270° |
| 2026-04-23 12:50 | 53.47873 | -28.49675 | 37713 ft | 505 kts | 270° |
| 2026-04-23 12:51 | 53.48108 | -28.61456 | 37718 ft | 505 kts | 270° |
| 2026-04-23 12:51 | 53.48332 | -28.73268 | 37721 ft | 505 kts | 270° |
| 2026-04-23 12:52 | 53.48545 | -28.85060 | 37716 ft | 505 kts | 270° |
| 2026-04-23 12:52 | 53.48745 | -28.96864 | 37725 ft | 505 kts | 270° |
| 2026-04-23 12:53 | 53.48933 | -29.08659 | 37722 ft | 506 kts | 270° |
| 2026-04-23 12:53 | 53.49108 | -29.20477 | 37730 ft | 505 kts | 270° |
| 2026-04-23 12:54 | 53.49276 | -29.32190 | 37727 ft | 505 kts | 270° |
| 2026-04-23 12:54 | 53.49436 | -29.43999 | 37724 ft | 504 kts | 269° |
| 2026-04-23 12:55 | 53.49580 | -29.55794 | 37735 ft | 506 kts | 270° |
| 2026-04-23 12:55 | 53.49711 | -29.67620 | 37717 ft | 505 kts | 269° |
| 2026-04-23 12:56 | 53.49829 | -29.79422 | 37735 ft | 505 kts | 269° |
| 2026-04-23 12:56 | 53.49936 | -29.91201 | 37730 ft | 503 kts | 269° |
| 2026-04-23 12:57 | 53.50028 | -30.02910 | 37739 ft | 504 kts | 269° |
| 2026-04-23 12:57 | 53.49956 | -30.14664 | 37739 ft | 502 kts | 267° |
| 2026-04-23 12:58 | 53.49800 | -30.26430 | 37747 ft | 504 kts | 268° |
| 2026-04-23 12:58 | 53.49650 | -30.38188 | 37733 ft | 503 kts | 268° |
| 2026-04-23 12:59 | 53.49508 | -30.49986 | 37746 ft | 504 kts | 268° |
| 2026-04-23 12:59 | 53.49364 | -30.61723 | 37749 ft | 504 kts | 268° |
| 2026-04-23 13:00 | 53.49208 | -30.73427 | 37758 ft | 502 kts | 268° |
| 2026-04-23 13:00 | 53.49038 | -30.85166 | 37759 ft | 505 kts | 268° |
| 2026-04-23 13:01 | 53.48855 | -30.96947 | 37746 ft | 503 kts | 268° |
| 2026-04-23 13:01 | 53.48662 | -31.08725 | 37767 ft | 506 kts | 268° |
| 2026-04-23 13:02 | 53.48457 | -31.20499 | 37738 ft | 503 kts | 268° |
| 2026-04-23 13:02 | 53.48242 | -31.32222 | 37773 ft | 505 kts | 268° |
| 2026-04-23 13:03 | 53.48013 | -31.43991 | 37772 ft | 504 kts | 267° |
| 2026-04-23 13:03 | 53.47773 | -31.55788 | 37779 ft | 505 kts | 267° |
| 2026-04-23 13:04 | 53.47521 | -31.67588 | 37772 ft | 507 kts | 267° |
| 2026-04-23 13:04 | 53.47258 | -31.79397 | 37771 ft | 504 kts | 267° |
| 2026-04-23 13:05 | 53.46984 | -31.91115 | 37788 ft | 506 kts | 267° |
| 2026-04-23 13:05 | 53.46697 | -32.02898 | 37781 ft | 504 kts | 267° |
| 2026-04-23 13:06 | 53.46246 | -32.20591 | 37784 ft | 504 kts | 267° |
| 2026-04-23 13:07 | 53.45930 | -32.32383 | 37805 ft | 505 kts | 267° |
| 2026-04-23 13:07 | 53.45605 | -32.44105 | 37795 ft | 502 kts | 266° |
| 2026-04-23 13:08 | 53.45267 | -32.55827 | 37795 ft | 502 kts | 266° |
| 2026-04-23 13:08 | 53.44921 | -32.67460 | 37825 ft | 504 kts | 267° |
| 2026-04-23 13:09 | 53.44562 | -32.79153 | 37825 ft | 499 kts | 267° |
| 2026-04-23 13:09 | 53.44191 | -32.90837 | 37819 ft | 503 kts | 267° |
| 2026-04-23 13:10 | 53.43811 | -33.02495 | 37814 ft | 500 kts | 267° |
| 2026-04-23 13:10 | 53.43418 | -33.14184 | 37829 ft | 501 kts | 267° |
| 2026-04-23 13:11 | 53.43014 | -33.25856 | 37833 ft | 502 kts | 266° |
| 2026-04-23 13:11 | 53.42601 | -33.37450 | 37831 ft | 499 kts | 267° |
| 2026-04-23 13:12 | 53.42175 | -33.49099 | 37832 ft | 502 kts | 266° |
| 2026-04-23 13:12 | 53.41737 | -33.60760 | 37841 ft | 500 kts | 266° |
| 2026-04-23 13:13 | 53.41287 | -33.72418 | 37851 ft | 500 kts | 266° |
| 2026-04-23 13:13 | 53.40831 | -33.83971 | 37853 ft | 500 kts | 266° |
| 2026-04-23 13:14 | 53.40361 | -33.95595 | 37860 ft | 498 kts | 266° |
| 2026-04-23 13:14 | 53.39878 | -34.07218 | 37878 ft | 500 kts | 266° |
| 2026-04-23 13:15 | 53.39388 | -34.18752 | 37870 ft | 499 kts | 266° |
| 2026-04-23 13:15 | 53.38966 | -34.28493 | 37860 ft | 499 kts | 266° |
| 2026-04-23 13:16 | 53.38370 | -34.41941 | 37891 ft | 499 kts | 266° |
| 2026-04-23 13:16 | 53.37934 | -34.51560 | 37883 ft | 496 kts | 266° |
| 2026-04-23 13:17 | 53.37400 | -34.63107 | 37884 ft | 499 kts | 266° |
| 2026-04-23 13:17 | 53.36855 | -34.74662 | 37880 ft | 497 kts | 266° |
| 2026-04-23 13:18 | 53.36297 | -34.86232 | 37885 ft | 497 kts | 266° |
| 2026-04-23 13:18 | 53.35731 | -34.97767 | 37901 ft | 498 kts | 265° |
| 2026-04-23 13:19 | 53.35152 | -35.09315 | 37887 ft | 496 kts | 266° |
| 2026-04-23 13:19 | 53.34563 | -35.20839 | 37891 ft | 498 kts | 265° |
| 2026-04-23 13:20 | 53.33966 | -35.32293 | 37894 ft | 497 kts | 266° |
| 2026-04-23 13:20 | 53.33354 | -35.43836 | 37897 ft | 496 kts | 265° |
| 2026-04-23 13:21 | 53.32733 | -35.55334 | 37898 ft | 497 kts | 265° |
| 2026-04-23 13:21 | 53.32101 | -35.66822 | 37923 ft | 495 kts | 265° |
| 2026-04-23 13:22 | 53.31461 | -35.78251 | 37930 ft | 496 kts | 265° |
| 2026-04-23 13:22 | 53.30807 | -35.89738 | 37933 ft | 497 kts | 265° |
| 2026-04-23 13:23 | 53.30140 | -36.01240 | 37911 ft | 495 kts | 265° |
| 2026-04-23 13:23 | 53.29465 | -36.12708 | 37916 ft | 496 kts | 265° |
| 2026-04-23 13:24 | 53.28779 | -36.24150 | 37908 ft | 495 kts | 265° |
| 2026-04-23 13:24 | 53.28087 | -36.35521 | 37913 ft | 494 kts | 265° |
| 2026-04-23 13:25 | 53.27381 | -36.46950 | 37918 ft | 495 kts | 264° |
| 2026-04-23 13:25 | 53.26663 | -36.58378 | 37931 ft | 493 kts | 264° |
| 2026-04-23 13:26 | 53.25935 | -36.69794 | 37916 ft | 493 kts | 264° |
| 2026-04-23 13:26 | 53.25196 | -36.81202 | 37934 ft | 494 kts | 264° |
| 2026-04-23 13:27 | 53.24446 | -36.92609 | 37943 ft | 493 kts | 264° |
| 2026-04-23 13:27 | 53.23691 | -37.03928 | 37942 ft | 494 kts | 264° |
| 2026-04-23 13:28 | 53.22919 | -37.15318 | 37946 ft | 493 kts | 264° |
| 2026-04-23 13:28 | 53.22139 | -37.26682 | 37947 ft | 492 kts | 264° |
| 2026-04-23 13:29 | 53.21348 | -37.38045 | 37952 ft | 493 kts | 264° |
| 2026-04-23 13:29 | 53.20548 | -37.49382 | 37956 ft | 492 kts | 264° |
| 2026-04-23 13:30 | 53.19735 | -37.60737 | 37950 ft | 491 kts | 263° |
| 2026-04-23 13:30 | 53.18913 | -37.72067 | 37962 ft | 493 kts | 263° |
| 2026-04-23 13:31 | 53.18079 | -37.83399 | 37961 ft | 492 kts | 263° |
| 2026-04-23 13:31 | 53.17241 | -37.94647 | 37956 ft | 491 kts | 263° |
| 2026-04-23 13:32 | 53.16388 | -38.05954 | 37962 ft | 492 kts | 263° |
| 2026-04-23 13:32 | 53.15525 | -38.17228 | 37970 ft | 491 kts | 263° |
| 2026-04-23 13:33 | 53.14649 | -38.28535 | 37964 ft | 490 kts | 263° |
| 2026-04-23 13:33 | 53.13765 | -38.39816 | 37969 ft | 492 kts | 263° |
| 2026-04-23 13:34 | 53.12869 | -38.51088 | 37962 ft | 491 kts | 263° |
| 2026-04-23 13:34 | 53.11970 | -38.62282 | 37978 ft | 490 kts | 263° |
| 2026-04-23 13:35 | 53.11057 | -38.73508 | 37976 ft | 490 kts | 263° |
| 2026-04-23 13:35 | 53.10132 | -38.84737 | 37974 ft | 489 kts | 263° |
| 2026-04-23 13:36 | 53.09201 | -38.95912 | 37977 ft | 489 kts | 263° |
| 2026-04-23 13:36 | 53.08256 | -39.07124 | 37989 ft | 490 kts | 262° |
| 2026-04-23 13:37 | 53.07299 | -39.18350 | 37985 ft | 489 kts | 262° |
| 2026-04-23 13:37 | 53.06332 | -39.29557 | 37984 ft | 489 kts | 262° |
| 2026-04-23 13:38 | 53.05355 | -39.40766 | 37994 ft | 490 kts | 262° |
| 2026-04-23 13:38 | 53.04368 | -39.51953 | 37990 ft | 489 kts | 262° |
| 2026-04-23 13:39 | 53.03367 | -39.63173 | 37986 ft | 490 kts | 262° |
| 2026-04-23 13:39 | 53.02357 | -39.74375 | 37994 ft | 490 kts | 262° |
| 2026-04-23 13:40 | 53.01347 | -39.85463 | 38000 ft | 489 kts | 262° |
| 2026-04-23 13:40 | 53.00318 | -39.96630 | 37999 ft | 488 kts | 262° |
| 2026-04-23 13:41 | 52.98857 | -40.07674 | 38001 ft | 490 kts | 257° |
| 2026-04-23 13:41 | 52.97214 | -40.18640 | 37997 ft | 490 kts | 256° |
| 2026-04-23 13:42 | 52.95534 | -40.29574 | 38002 ft | 488 kts | 256° |
| 2026-04-23 13:42 | 52.93848 | -40.40495 | 38002 ft | 488 kts | 256° |
| 2026-04-23 13:43 | 52.92161 | -40.51398 | 38007 ft | 489 kts | 256° |
| 2026-04-23 13:43 | 52.90464 | -40.62312 | 38007 ft | 490 kts | 256° |
| 2026-04-23 13:44 | 52.88767 | -40.73148 | 38003 ft | 488 kts | 256° |
| 2026-04-23 13:44 | 52.87052 | -40.84037 | 38010 ft | 488 kts | 256° |
| 2026-04-23 13:45 | 52.85616 | -40.93096 | 38012 ft | 490 kts | 256° |
| 2026-04-23 13:45 | 52.83583 | -41.05831 | 38010 ft | 490 kts | 256° |
| 2026-04-23 13:46 | 52.81834 | -41.16708 | 38006 ft | 489 kts | 256° |
| 2026-04-23 13:46 | 52.80080 | -41.27556 | 38014 ft | 488 kts | 256° |
| 2026-04-23 13:47 | 52.78316 | -41.38390 | 38012 ft | 488 kts | 256° |
| 2026-04-23 13:47 | 52.76557 | -41.49133 | 38015 ft | 489 kts | 255° |
| 2026-04-23 13:48 | 52.74774 | -41.59943 | 38012 ft | 488 kts | 255° |
| 2026-04-23 13:48 | 52.72982 | -41.70747 | 38006 ft | 487 kts | 256° |
| 2026-04-23 13:49 | 52.71178 | -41.81545 | 38011 ft | 487 kts | 255° |
| 2026-04-23 13:49 | 52.69365 | -41.92325 | 38014 ft | 487 kts | 256° |
| 2026-04-23 13:50 | 52.67544 | -42.03097 | 38009 ft | 488 kts | 255° |
| 2026-04-23 13:50 | 52.65724 | -42.13788 | 38010 ft | 489 kts | 255° |
| 2026-04-23 13:51 | 52.63878 | -42.24574 | 38014 ft | 488 kts | 256° |
| 2026-04-23 13:51 | 52.62025 | -42.35336 | 38007 ft | 487 kts | 255° |
| 2026-04-23 13:52 | 52.60168 | -42.46062 | 38018 ft | 487 kts | 255° |
| 2026-04-23 13:52 | 52.58302 | -42.56766 | 38013 ft | 487 kts | 255° |
| 2026-04-23 13:53 | 52.56423 | -42.67486 | 38013 ft | 487 kts | 255° |
| 2026-04-23 13:53 | 52.54545 | -42.78131 | 38004 ft | 486 kts | 255° |
| 2026-04-23 13:54 | 52.52651 | -42.88799 | 38010 ft | 486 kts | 255° |
| 2026-04-23 13:54 | 52.50747 | -42.99459 | 38014 ft | 487 kts | 255° |
| 2026-04-23 13:55 | 52.48835 | -43.10108 | 38014 ft | 487 kts | 255° |
| 2026-04-23 13:55 | 52.46922 | -43.20703 | 38007 ft | 487 kts | 255° |
| 2026-04-23 13:56 | 52.44985 | -43.31360 | 38013 ft | 486 kts | 255° |
| 2026-04-23 13:56 | 52.43044 | -43.41970 | 38008 ft | 485 kts | 255° |
| 2026-04-23 13:57 | 52.41096 | -43.52573 | 38011 ft | 486 kts | 255° |
| 2026-04-23 13:57 | 52.39152 | -43.63092 | 38008 ft | 486 kts | 255° |
| 2026-04-23 13:58 | 52.37189 | -43.73657 | 38009 ft | 485 kts | 255° |
| 2026-04-23 13:58 | 52.35216 | -43.84211 | 38005 ft | 483 kts | 255° |
| 2026-04-23 13:59 | 52.33243 | -43.94691 | 38006 ft | 482 kts | 255° |
| 2026-04-23 13:59 | 52.31260 | -44.05175 | 38009 ft | 482 kts | 254° |
| 2026-04-23 14:00 | 52.29608 | -44.13861 | 38005 ft | 482 kts | 254° |
| 2026-04-23 14:00 | 52.27274 | -44.26087 | 38008 ft | 482 kts | 255° |
| 2026-04-23 14:01 | 52.25279 | -44.36472 | 38003 ft | 482 kts | 255° |
| 2026-04-23 14:01 | 52.23259 | -44.46917 | 38000 ft | 482 kts | 254° |
| 2026-04-23 14:02 | 52.21230 | -44.57354 | 37998 ft | 483 kts | 254° |
| 2026-04-23 14:02 | 52.19189 | -44.67802 | 38002 ft | 483 kts | 253° |
| 2026-04-23 14:03 | 52.17141 | -44.78229 | 37987 ft | 483 kts | 254° |
| 2026-04-23 14:03 | 52.15089 | -44.88616 | 37997 ft | 480 kts | 254° |
| 2026-04-23 14:04 | 52.13035 | -44.98961 | 37987 ft | 479 kts | 254° |
| 2026-04-23 14:04 | 52.11319 | -45.07558 | 37993 ft | 480 kts | 254° |
| 2026-04-23 14:05 | 52.08910 | -45.19571 | 37992 ft | 480 kts | 253° |
| 2026-04-23 14:05 | 52.07181 | -45.28136 | 37983 ft | 480 kts | 253° |
| 2026-04-23 14:06 | 52.05097 | -45.38417 | 37989 ft | 478 kts | 254° |
| 2026-04-23 14:06 | 52.03008 | -45.48676 | 37989 ft | 478 kts | 253° |
| 2026-04-23 14:07 | 52.00907 | -45.58938 | 37974 ft | 478 kts | 253° |
| 2026-04-23 14:07 | 51.97752 | -45.74249 | 37960 ft | 479 kts | 253° |
| 2026-04-23 14:08 | 51.95628 | -45.84488 | 37977 ft | 478 kts | 253° |
| 2026-04-23 14:08 | 51.93499 | -45.94700 | 37978 ft | 478 kts | 253° |
| 2026-04-23 14:09 | 51.91356 | -46.04925 | 37977 ft | 478 kts | 253° |
| 2026-04-23 14:09 | 51.89218 | -46.15078 | 37974 ft | 478 kts | 253° |
| 2026-04-23 14:10 | 51.87061 | -46.25265 | 37967 ft | 478 kts | 253° |
| 2026-04-23 14:10 | 51.84895 | -46.35451 | 37966 ft | 478 kts | 253° |
| 2026-04-23 14:11 | 51.82719 | -46.45628 | 37964 ft | 478 kts | 253° |
| 2026-04-23 14:11 | 51.80552 | -46.55713 | 37975 ft | 478 kts | 253° |
| 2026-04-23 14:12 | 51.78368 | -46.65822 | 37958 ft | 474 kts | 253° |
| 2026-04-23 14:12 | 51.76193 | -46.75842 | 37948 ft | 473 kts | 253° |
| 2026-04-23 14:13 | 51.74007 | -46.85874 | 37949 ft | 473 kts | 253° |
| 2026-04-23 14:13 | 51.71811 | -46.95897 | 37940 ft | 473 kts | 252° |
| 2026-04-23 14:14 | 51.69606 | -47.05909 | 37942 ft | 474 kts | 252° |
| 2026-04-23 14:14 | 51.67393 | -47.15910 | 37937 ft | 474 kts | 252° |
| 2026-04-23 14:15 | 51.65184 | -47.25848 | 37947 ft | 474 kts | 252° |
| 2026-04-23 14:15 | 51.62951 | -47.35844 | 37945 ft | 474 kts | 251° |
| 2026-04-23 14:16 | 51.60711 | -47.45821 | 37942 ft | 474 kts | 251° |
| 2026-04-23 14:16 | 51.58462 | -47.55796 | 37937 ft | 474 kts | 251° |
| 2026-04-23 14:17 | 51.56205 | -47.65758 | 37935 ft | 474 kts | 251° |
| 2026-04-23 14:17 | 51.53937 | -47.75723 | 37918 ft | 475 kts | 251° |
| 2026-04-23 14:18 | 51.51660 | -47.85677 | 37916 ft | 475 kts | 250° |
| 2026-04-23 14:18 | 51.49374 | -47.95623 | 37914 ft | 476 kts | 250° |
| 2026-04-23 14:19 | 51.47072 | -48.05592 | 37907 ft | 476 kts | 250° |
| 2026-04-23 14:19 | 51.44776 | -48.15494 | 37909 ft | 476 kts | 250° |
| 2026-04-23 14:20 | 51.42455 | -48.25452 | 37897 ft | 476 kts | 250° |
| 2026-04-23 14:20 | 51.40127 | -48.35390 | 37898 ft | 476 kts | 249° |
| 2026-04-23 14:21 | 51.37792 | -48.45319 | 37897 ft | 477 kts | 249° |
| 2026-04-23 14:21 | 51.35447 | -48.55241 | 37892 ft | 477 kts | 249° |
| 2026-04-23 14:22 | 51.33094 | -48.65156 | 37896 ft | 477 kts | 249° |
| 2026-04-23 14:22 | 51.30740 | -48.75024 | 37890 ft | 478 kts | 249° |
| 2026-04-23 14:23 | 51.28362 | -48.84951 | 37889 ft | 478 kts | 249° |
| 2026-04-23 14:23 | 51.25976 | -48.94867 | 37872 ft | 478 kts | 248° |
| 2026-04-23 14:24 | 51.23582 | -49.04770 | 37883 ft | 479 kts | 248° |
| 2026-04-23 14:24 | 51.21171 | -49.14695 | 37877 ft | 480 kts | 248° |
| 2026-04-23 14:25 | 51.18748 | -49.24627 | 37867 ft | 480 kts | 248° |
| 2026-04-23 14:25 | 51.16324 | -49.34520 | 37863 ft | 479 kts | 248° |
| 2026-04-23 14:26 | 51.13906 | -49.44343 | 37851 ft | 479 kts | 248° |
| 2026-04-23 14:26 | 51.11464 | -49.54222 | 37852 ft | 479 kts | 247° |
| 2026-04-23 14:27 | 51.09009 | -49.64105 | 37848 ft | 481 kts | 247° |
| 2026-04-23 14:27 | 51.06541 | -49.73998 | 37839 ft | 481 kts | 247° |
| 2026-04-23 14:28 | 51.04065 | -49.83877 | 37840 ft | 481 kts | 247° |
| 2026-04-23 14:28 | 51.01595 | -49.93692 | 37826 ft | 481 kts | 247° |
| 2026-04-23 14:29 | 50.99107 | -50.03569 | 37827 ft | 482 kts | 247° |
| 2026-04-23 14:29 | 50.96713 | -50.13521 | 37820 ft | 483 kts | 248° |
| 2026-04-23 14:30 | 50.94339 | -50.23506 | 37817 ft | 484 kts | 248° |
| 2026-04-23 14:30 | 50.91945 | -50.33471 | 37807 ft | 484 kts | 247° |
| 2026-04-23 14:31 | 50.89529 | -50.43422 | 37806 ft | 484 kts | 247° |
| 2026-04-23 14:31 | 50.87092 | -50.53387 | 37794 ft | 486 kts | 246° |
| 2026-04-23 14:32 | 50.84642 | -50.63373 | 37786 ft | 487 kts | 246° |
| 2026-04-23 14:32 | 50.82198 | -50.73292 | 37788 ft | 487 kts | 246° |
| 2026-04-23 14:33 | 50.79730 | -50.83264 | 37778 ft | 487 kts | 246° |
| 2026-04-23 14:33 | 50.77253 | -50.93230 | 37778 ft | 487 kts | 245° |
| 2026-04-23 14:34 | 50.74771 | -51.03167 | 37771 ft | 486 kts | 245° |
| 2026-04-23 14:34 | 50.72279 | -51.13098 | 37767 ft | 486 kts | 245° |
| 2026-04-23 14:35 | 50.69775 | -51.23035 | 37763 ft | 487 kts | 245° |
| 2026-04-23 14:35 | 50.67278 | -51.32899 | 37760 ft | 487 kts | 245° |
| 2026-04-23 14:36 | 50.64758 | -51.42820 | 37757 ft | 486 kts | 244° |
| 2026-04-23 14:36 | 50.62240 | -51.52683 | 37757 ft | 484 kts | 244° |
| 2026-04-23 14:37 | 50.59719 | -51.62507 | 37752 ft | 484 kts | 244° |
| 2026-04-23 14:37 | 50.57189 | -51.72329 | 37749 ft | 484 kts | 244° |
| 2026-04-23 14:38 | 50.54662 | -51.82096 | 37764 ft | 484 kts | 243° |
| 2026-04-23 14:38 | 50.52126 | -51.91857 | 37743 ft | 481 kts | 243° |
| 2026-04-23 14:39 | 50.49440 | -52.01457 | 37747 ft | 477 kts | 238° |
| 2026-04-23 14:39 | 50.46363 | -52.10605 | 37744 ft | 476 kts | 237° |
| 2026-04-23 14:40 | 50.43192 | -52.19728 | 37748 ft | 476 kts | 236° |
| 2026-04-23 14:40 | 50.39998 | -52.28851 | 37744 ft | 477 kts | 236° |
| 2026-04-23 14:41 | 50.36805 | -52.37968 | 37744 ft | 477 kts | 236° |
| 2026-04-23 14:41 | 50.33606 | -52.47088 | 37744 ft | 477 kts | 236° |
| 2026-04-23 14:42 | 50.30419 | -52.56146 | 37741 ft | 477 kts | 236° |
| 2026-04-23 14:42 | 50.27203 | -52.65250 | 37727 ft | 477 kts | 236° |
| 2026-04-23 14:43 | 50.23979 | -52.74343 | 37748 ft | 479 kts | 236° |
| 2026-04-23 14:43 | 50.20742 | -52.83445 | 37747 ft | 479 kts | 236° |
| 2026-04-23 14:44 | 50.17519 | -52.92475 | 37724 ft | 479 kts | 235° |
| 2026-04-23 14:44 | 50.14270 | -53.01542 | 37766 ft | 479 kts | 235° |
| 2026-04-23 14:45 | 50.11008 | -53.10614 | 37744 ft | 480 kts | 235° |
| 2026-04-23 14:45 | 50.07729 | -53.19699 | 37739 ft | 481 kts | 235° |
| 2026-04-23 14:46 | 50.04446 | -53.28768 | 37740 ft | 481 kts | 235° |
| 2026-04-23 14:46 | 50.01156 | -53.37824 | 37743 ft | 481 kts | 235° |
| 2026-04-23 14:47 | 49.97854 | -53.46880 | 37747 ft | 481 kts | 235° |
| 2026-04-23 14:47 | 49.94546 | -53.55920 | 37741 ft | 482 kts | 235° |
| 2026-04-23 14:48 | 49.91230 | -53.64951 | 37748 ft | 482 kts | 234° |
| 2026-04-23 14:48 | 49.87906 | -53.73972 | 37744 ft | 482 kts | 234° |
| 2026-04-23 14:49 | 49.84576 | -53.82977 | 37748 ft | 481 kts | 234° |
| 2026-04-23 14:49 | 49.81261 | -53.91912 | 37748 ft | 481 kts | 234° |
| 2026-04-23 14:50 | 49.77917 | -54.00894 | 37751 ft | 481 kts | 234° |
| 2026-04-23 14:50 | 49.74571 | -54.09849 | 37752 ft | 481 kts | 234° |
| 2026-04-23 14:51 | 49.71212 | -54.18810 | 37748 ft | 481 kts | 234° |
| 2026-04-23 14:51 | 49.67872 | -54.27690 | 37742 ft | 480 kts | 234° |
| 2026-04-23 14:52 | 49.64508 | -54.36601 | 37745 ft | 480 kts | 234° |
| 2026-04-23 14:52 | 49.61137 | -54.45498 | 37746 ft | 480 kts | 234° |
| 2026-04-23 14:53 | 49.58307 | -54.52947 | 37779 ft | 480 kts | 234° |
| 2026-04-23 14:53 | 49.54942 | -54.61775 | 37747 ft | 480 kts | 234° |
| 2026-04-23 14:54 | 49.51551 | -54.70642 | 37744 ft | 480 kts | 234° |
| 2026-04-23 14:54 | 49.48150 | -54.79505 | 37742 ft | 481 kts | 234° |
| 2026-04-23 14:55 | 49.44737 | -54.88370 | 37743 ft | 481 kts | 234° |
| 2026-04-23 14:55 | 49.41317 | -54.97222 | 37749 ft | 482 kts | 234° |
| 2026-04-23 14:56 | 49.37906 | -55.06022 | 37749 ft | 482 kts | 234° |
| 2026-04-23 14:56 | 49.34470 | -55.14857 | 37758 ft | 482 kts | 234° |
| 2026-04-23 14:57 | 49.31019 | -55.23699 | 37752 ft | 482 kts | 234° |
| 2026-04-23 14:57 | 49.27568 | -55.32513 | 37760 ft | 482 kts | 234° |
| 2026-04-23 14:58 | 49.24114 | -55.41306 | 37769 ft | 482 kts | 234° |
| 2026-04-23 14:58 | 49.20652 | -55.50089 | 37769 ft | 482 kts | 234° |
| 2026-04-23 14:59 | 49.17184 | -55.58859 | 37776 ft | 482 kts | 234° |
| 2026-04-23 14:59 | 49.13732 | -55.67559 | 37762 ft | 481 kts | 233° |
| 2026-04-23 15:00 | 49.10261 | -55.76276 | 37786 ft | 480 kts | 233° |
| 2026-04-23 15:00 | 49.06783 | -55.84985 | 37792 ft | 480 kts | 233° |
| 2026-04-23 15:01 | 49.03315 | -55.93637 | 37800 ft | 481 kts | 233° |
| 2026-04-23 15:01 | 48.99823 | -56.02325 | 37793 ft | 480 kts | 233° |
| 2026-04-23 15:02 | 48.96327 | -56.10994 | 37790 ft | 480 kts | 233° |
| 2026-04-23 15:02 | 48.92828 | -56.19643 | 37793 ft | 480 kts | 233° |
| 2026-04-23 15:03 | 48.89319 | -56.28285 | 37790 ft | 480 kts | 233° |
| 2026-04-23 15:03 | 48.85806 | -56.36911 | 37802 ft | 480 kts | 233° |
| 2026-04-23 15:04 | 48.82287 | -56.45522 | 37790 ft | 480 kts | 233° |
| 2026-04-23 15:04 | 48.78782 | -56.54069 | 37791 ft | 480 kts | 233° |
| 2026-04-23 15:05 | 48.75246 | -56.62667 | 37791 ft | 480 kts | 233° |
| 2026-04-23 15:05 | 48.71702 | -56.71260 | 37800 ft | 480 kts | 233° |
| 2026-04-23 15:06 | 48.68155 | -56.79829 | 37789 ft | 481 kts | 233° |
| 2026-04-23 15:06 | 48.64612 | -56.88362 | 37791 ft | 481 kts | 233° |
| 2026-04-23 15:07 | 48.61045 | -56.96925 | 37798 ft | 481 kts | 233° |
| 2026-04-23 15:07 | 48.57473 | -57.05474 | 37819 ft | 481 kts | 232° |
| 2026-04-23 15:08 | 48.53892 | -57.14016 | 37824 ft | 482 kts | 232° |
| 2026-04-23 15:09 | 48.48498 | -57.26830 | 37835 ft | 482 kts | 232° |
| 2026-04-23 15:09 | 48.44920 | -57.35299 | 37831 ft | 482 kts | 232° |
| 2026-04-23 15:10 | 48.41898 | -57.42430 | 37832 ft | 482 kts | 233° |
| 2026-04-23 15:10 | 48.37696 | -57.52317 | 37835 ft | 482 kts | 233° |
| 2026-04-23 15:11 | 48.34070 | -57.60817 | 37834 ft | 482 kts | 232° |
| 2026-04-23 15:11 | 48.30442 | -57.69295 | 37839 ft | 482 kts | 232° |
| 2026-04-23 15:12 | 48.26827 | -57.77718 | 37842 ft | 482 kts | 233° |
| 2026-04-23 15:12 | 48.23186 | -57.86173 | 37847 ft | 482 kts | 233° |
| 2026-04-23 15:13 | 48.19544 | -57.94605 | 37847 ft | 482 kts | 233° |
| 2026-04-23 15:13 | 48.15896 | -58.03025 | 37848 ft | 482 kts | 232° |
| 2026-04-23 15:14 | 48.12241 | -58.11434 | 37851 ft | 481 kts | 233° |
| 2026-04-23 15:14 | 48.08584 | -58.19824 | 37851 ft | 481 kts | 233° |
| 2026-04-23 15:15 | 48.04943 | -58.28149 | 37848 ft | 481 kts | 233° |
| 2026-04-23 15:15 | 48.01274 | -58.36512 | 37853 ft | 481 kts | 233° |
| 2026-04-23 15:16 | 47.97599 | -58.44866 | 37856 ft | 480 kts | 233° |
| 2026-04-23 15:16 | 47.93934 | -58.53170 | 37856 ft | 479 kts | 233° |
| 2026-04-23 15:17 | 47.90263 | -58.61462 | 37861 ft | 478 kts | 233° |
| 2026-04-23 15:17 | 47.86589 | -58.69734 | 37862 ft | 478 kts | 233° |
| 2026-04-23 15:18 | 47.82910 | -58.77994 | 37870 ft | 477 kts | 233° |
| 2026-04-23 15:18 | 47.79264 | -58.86154 | 37876 ft | 476 kts | 233° |
| 2026-04-23 15:19 | 47.75590 | -58.94355 | 37878 ft | 476 kts | 233° |
| 2026-04-23 15:19 | 47.71912 | -59.02536 | 37883 ft | 476 kts | 233° |
| 2026-04-23 15:20 | 47.68828 | -59.09380 | 37880 ft | 475 kts | 233° |
| 2026-04-23 15:20 | 47.64559 | -59.18825 | 37885 ft | 474 kts | 233° |
| 2026-04-23 15:21 | 47.60876 | -59.26945 | 37892 ft | 474 kts | 233° |
| 2026-04-23 15:21 | 47.57186 | -59.35057 | 37892 ft | 475 kts | 233° |
| 2026-04-23 15:22 | 47.53494 | -59.43152 | 37899 ft | 473 kts | 233° |
| 2026-04-23 15:22 | 47.49807 | -59.51213 | 37896 ft | 472 kts | 233° |
| 2026-04-23 15:23 | 47.46137 | -59.59210 | 37897 ft | 472 kts | 233° |
| 2026-04-23 15:23 | 47.42446 | -59.67231 | 37900 ft | 472 kts | 233° |
| 2026-04-23 15:24 | 47.38750 | -59.75238 | 37904 ft | 471 kts | 234° |
| 2026-04-23 15:24 | 47.35051 | -59.83230 | 37902 ft | 470 kts | 233° |
| 2026-04-23 15:25 | 47.31356 | -59.91191 | 37909 ft | 470 kts | 233° |
| 2026-04-23 15:25 | 47.27674 | -59.99098 | 37910 ft | 470 kts | 233° |
| 2026-04-23 15:26 | 47.23965 | -60.07041 | 37981 ft | 470 kts | 234° |
| 2026-04-23 15:26 | 47.22107 | -60.11012 | 38118 ft | 471 kts | 234° |
| 2026-04-23 15:26 | 47.20239 | -60.14998 | 38279 ft | 471 kts | 234° |
| 2026-04-23 15:26 | 47.18378 | -60.18965 | 38434 ft | 471 kts | 234° |
| 2026-04-23 15:27 | 47.16512 | -60.22936 | 38605 ft | 471 kts | 234° |
| 2026-04-23 15:27 | 47.14673 | -60.26844 | 38730 ft | 471 kts | 234° |
| 2026-04-23 15:27 | 47.12803 | -60.30812 | 38849 ft | 472 kts | 234° |
| 2026-04-23 15:27 | 47.10923 | -60.34795 | 38950 ft | 473 kts | 233° |
| 2026-04-23 15:28 | 47.09047 | -60.38764 | 39051 ft | 473 kts | 234° |
| 2026-04-23 15:28 | 47.07171 | -60.42728 | 39186 ft | 473 kts | 233° |
| 2026-04-23 15:28 | 47.05290 | -60.46696 | 39287 ft | 473 kts | 233° |
| 2026-04-23 15:28 | 47.03414 | -60.50649 | 39410 ft | 473 kts | 234° |
| 2026-04-23 15:29 | 47.01530 | -60.54612 | 39521 ft | 473 kts | 233° |
| 2026-04-23 15:29 | 46.99645 | -60.58572 | 39644 ft | 473 kts | 234° |
| 2026-04-23 15:29 | 46.97761 | -60.62525 | 39758 ft | 473 kts | 233° |
| 2026-04-23 15:29 | 46.95903 | -60.66417 | 39880 ft | 473 kts | 234° |
| 2026-04-23 15:30 | 46.94011 | -60.70374 | 39909 ft | 475 kts | 233° |
| 2026-04-23 15:30 | 46.90197 | -60.78333 | 39916 ft | 478 kts | 233° |
| 2026-04-23 15:31 | 46.86373 | -60.86295 | 39912 ft | 477 kts | 233° |
| 2026-04-23 15:31 | 46.82557 | -60.94215 | 39915 ft | 477 kts | 233° |
| 2026-04-23 15:32 | 46.78739 | -61.02119 | 39917 ft | 475 kts | 233° |
| 2026-04-23 15:32 | 46.74947 | -61.09943 | 39919 ft | 475 kts | 233° |
| 2026-04-23 15:33 | 46.71121 | -61.17815 | 39920 ft | 475 kts | 233° |
| 2026-04-23 15:33 | 46.67287 | -61.25681 | 39927 ft | 475 kts | 234° |
| 2026-04-23 15:34 | 46.63459 | -61.33514 | 39923 ft | 474 kts | 234° |
| 2026-04-23 15:34 | 46.59621 | -61.41346 | 39924 ft | 475 kts | 233° |
| 2026-04-23 15:35 | 46.55795 | -61.49130 | 39924 ft | 475 kts | 233° |
| 2026-04-23 15:35 | 46.51944 | -61.56944 | 39926 ft | 475 kts | 234° |
| 2026-04-23 15:36 | 46.48089 | -61.64744 | 39923 ft | 475 kts | 234° |
| 2026-04-23 15:36 | 46.44233 | -61.72525 | 39924 ft | 475 kts | 234° |
| 2026-04-23 15:37 | 46.40369 | -61.80301 | 39926 ft | 475 kts | 234° |
| 2026-04-23 15:37 | 46.37154 | -61.86752 | 39923 ft | 475 kts | 234° |
| 2026-04-23 15:38 | 46.32631 | -61.95805 | 39924 ft | 474 kts | 234° |
| 2026-04-23 15:38 | 46.29413 | -62.02229 | 39920 ft | 474 kts | 234° |
| 2026-04-23 15:39 | 46.25537 | -62.09947 | 39919 ft | 474 kts | 234° |
| 2026-04-23 15:39 | 46.21660 | -62.17644 | 39919 ft | 473 kts | 234° |
| 2026-04-23 15:40 | 46.17788 | -62.25310 | 39915 ft | 471 kts | 234° |
| 2026-04-23 15:40 | 46.13940 | -62.32908 | 39919 ft | 472 kts | 234° |
| 2026-04-23 15:41 | 46.10062 | -62.40546 | 39919 ft | 473 kts | 234° |
| 2026-04-23 15:41 | 46.06170 | -62.48191 | 39928 ft | 472 kts | 234° |
| 2026-04-23 15:42 | 46.02275 | -62.55820 | 39932 ft | 472 kts | 234° |
| 2026-04-23 15:42 | 45.98382 | -62.63423 | 39930 ft | 472 kts | 234° |
| 2026-04-23 15:43 | 45.94482 | -62.71020 | 39930 ft | 472 kts | 234° |
| 2026-04-23 15:43 | 45.90571 | -62.78620 | 39929 ft | 472 kts | 234° |
| 2026-04-23 15:44 | 45.86662 | -62.86195 | 39919 ft | 472 kts | 234° |
| 2026-04-23 15:44 | 45.82742 | -62.93769 | 39920 ft | 473 kts | 234° |
| 2026-04-23 15:45 | 45.78839 | -63.01290 | 39922 ft | 473 kts | 234° |
| 2026-04-23 15:45 | 45.74912 | -63.08837 | 39925 ft | 472 kts | 234° |
| 2026-04-23 15:46 | 45.70982 | -63.16372 | 39922 ft | 471 kts | 234° |
| 2026-04-23 15:46 | 45.67051 | -63.23889 | 39926 ft | 471 kts | 234° |
| 2026-04-23 15:47 | 45.63133 | -63.31361 | 39926 ft | 473 kts | 234° |
| 2026-04-23 15:47 | 45.59180 | -63.38878 | 39931 ft | 473 kts | 234° |
| 2026-04-23 15:48 | 45.55220 | -63.46389 | 39932 ft | 473 kts | 234° |
| 2026-04-23 15:48 | 45.51256 | -63.53888 | 39933 ft | 473 kts | 234° |
| 2026-04-23 15:49 | 45.47282 | -63.61385 | 39933 ft | 473 kts | 234° |
| 2026-04-23 15:49 | 45.43314 | -63.68851 | 39936 ft | 472 kts | 234° |
| 2026-04-23 15:50 | 45.39369 | -63.76256 | 39936 ft | 472 kts | 234° |
| 2026-04-23 15:50 | 45.35390 | -63.83705 | 39939 ft | 472 kts | 234° |
| 2026-04-23 15:51 | 45.31410 | -63.91136 | 39938 ft | 472 kts | 234° |
| 2026-04-23 15:51 | 45.27446 | -63.98517 | 39936 ft | 473 kts | 234° |
| 2026-04-23 15:52 | 45.23449 | -64.05941 | 39937 ft | 473 kts | 234° |
| 2026-04-23 15:52 | 45.19451 | -64.13348 | 39933 ft | 472 kts | 234° |
| 2026-04-23 15:53 | 45.15451 | -64.20736 | 39936 ft | 473 kts | 234° |
| 2026-04-23 15:53 | 45.11438 | -64.28132 | 39937 ft | 473 kts | 234° |
| 2026-04-23 15:54 | 45.07424 | -64.35512 | 39940 ft | 473 kts | 234° |
| 2026-04-23 15:54 | 45.03406 | -64.42878 | 39938 ft | 473 kts | 234° |
| 2026-04-23 15:55 | 44.99413 | -64.50180 | 39932 ft | 472 kts | 234° |
| 2026-04-23 15:55 | 44.95384 | -64.57528 | 39933 ft | 472 kts | 234° |
| 2026-04-23 15:56 | 44.91354 | -64.64861 | 39936 ft | 472 kts | 234° |
| 2026-04-23 15:56 | 44.87315 | -64.72189 | 39929 ft | 472 kts | 234° |
| 2026-04-23 15:57 | 44.83312 | -64.79435 | 39929 ft | 472 kts | 234° |
| 2026-04-23 15:57 | 44.79269 | -64.86734 | 39929 ft | 472 kts | 234° |
| 2026-04-23 15:58 | 44.75220 | -64.94026 | 39927 ft | 472 kts | 234° |
| 2026-04-23 15:58 | 44.71176 | -65.01290 | 39935 ft | 471 kts | 234° |
| 2026-04-23 15:59 | 44.67125 | -65.08546 | 39933 ft | 472 kts | 234° |
| 2026-04-23 15:59 | 44.63069 | -65.15796 | 39933 ft | 472 kts | 234° |
| 2026-04-23 16:00 | 44.59006 | -65.23039 | 39934 ft | 471 kts | 234° |
| 2026-04-23 16:00 | 44.54965 | -65.30224 | 39937 ft | 471 kts | 234° |
| 2026-04-23 16:01 | 44.50897 | -65.37440 | 39932 ft | 471 kts | 234° |
| 2026-04-23 16:01 | 44.46829 | -65.44639 | 39929 ft | 471 kts | 234° |
| 2026-04-23 16:02 | 44.42757 | -65.51822 | 39930 ft | 470 kts | 234° |
| 2026-04-23 16:02 | 44.38687 | -65.58988 | 39930 ft | 470 kts | 234° |
| 2026-04-23 16:03 | 44.34638 | -65.66099 | 39930 ft | 470 kts | 234° |
| 2026-04-23 16:03 | 44.30554 | -65.73255 | 39924 ft | 470 kts | 234° |
| 2026-04-23 16:04 | 44.26470 | -65.80391 | 39927 ft | 470 kts | 234° |
| 2026-04-23 16:04 | 44.22388 | -65.87507 | 39918 ft | 470 kts | 235° |
| 2026-04-23 16:05 | 44.18992 | -65.93412 | 39929 ft | 470 kts | 234° |
| 2026-04-23 16:05 | 44.14208 | -66.01711 | 39928 ft | 470 kts | 234° |
| 2026-04-23 16:06 | 44.10105 | -66.08811 | 39920 ft | 470 kts | 234° |
| 2026-04-23 16:06 | 44.06000 | -66.15897 | 39922 ft | 470 kts | 234° |
| 2026-04-23 16:07 | 44.01892 | -66.22968 | 39918 ft | 470 kts | 234° |
| 2026-04-23 16:07 | 43.97806 | -66.29987 | 39918 ft | 470 kts | 234° |
| 2026-04-23 16:08 | 43.93693 | -66.37035 | 39917 ft | 470 kts | 234° |
| 2026-04-23 16:08 | 43.89573 | -66.44077 | 39921 ft | 470 kts | 234° |
| 2026-04-23 16:09 | 43.85450 | -66.51106 | 39928 ft | 469 kts | 235° |
| 2026-04-23 16:09 | 43.81330 | -66.58113 | 39912 ft | 469 kts | 235° |
| 2026-04-23 16:10 | 43.77203 | -66.65117 | 39926 ft | 469 kts | 235° |
| 2026-04-23 16:10 | 43.73075 | -66.72104 | 39899 ft | 469 kts | 235° |
| 2026-04-23 16:11 | 43.68944 | -66.79080 | 39911 ft | 468 kts | 235° |
| 2026-04-23 16:11 | 43.64836 | -66.86002 | 39910 ft | 468 kts | 235° |
| 2026-04-23 16:12 | 43.60698 | -66.92957 | 39908 ft | 468 kts | 235° |
| 2026-04-23 16:12 | 43.56816 | -67.00131 | 39907 ft | 461 kts | 245° |
| 2026-04-23 16:13 | 43.54196 | -67.08058 | 39902 ft | 455 kts | 252° |
| 2026-04-23 16:13 | 43.50775 | -67.20266 | 39904 ft | 455 kts | 253° |
| 2026-04-23 16:14 | 43.48515 | -67.28416 | 39899 ft | 455 kts | 253° |
| 2026-04-23 16:14 | 43.46230 | -67.36538 | 39891 ft | 455 kts | 253° |
| 2026-04-23 16:15 | 43.43928 | -67.44654 | 39895 ft | 455 kts | 253° |
| 2026-04-23 16:15 | 43.41623 | -67.52748 | 39894 ft | 454 kts | 253° |
| 2026-04-23 16:16 | 43.39326 | -67.60790 | 39892 ft | 455 kts | 253° |
| 2026-04-23 16:16 | 43.37008 | -67.68885 | 39892 ft | 455 kts | 253° |
| 2026-04-23 16:17 | 43.34684 | -67.76971 | 39888 ft | 454 kts | 253° |
| 2026-04-23 16:17 | 43.32356 | -67.85044 | 39884 ft | 453 kts | 253° |
| 2026-04-23 16:18 | 43.30030 | -67.93089 | 39892 ft | 453 kts | 253° |
| 2026-04-23 16:18 | 43.27697 | -68.01132 | 39895 ft | 453 kts | 253° |
| 2026-04-23 16:19 | 43.25375 | -68.09111 | 39892 ft | 453 kts | 253° |
| 2026-04-23 16:19 | 43.23032 | -68.17136 | 39899 ft | 453 kts | 253° |
| 2026-04-23 16:20 | 43.20685 | -68.25148 | 39890 ft | 452 kts | 253° |
| 2026-04-23 16:20 | 43.18339 | -68.33133 | 39890 ft | 452 kts | 253° |
| 2026-04-23 16:21 | 43.15983 | -68.41128 | 39886 ft | 452 kts | 253° |
| 2026-04-23 16:21 | 43.13622 | -68.49114 | 39892 ft | 452 kts | 253° |
| 2026-04-23 16:22 | 43.11272 | -68.57036 | 39891 ft | 451 kts | 253° |
| 2026-04-23 16:22 | 43.08907 | -68.64987 | 39900 ft | 451 kts | 253° |
| 2026-04-23 16:23 | 43.06537 | -68.72927 | 39901 ft | 451 kts | 253° |
| 2026-04-23 16:23 | 43.04160 | -68.80869 | 39900 ft | 451 kts | 253° |
| 2026-04-23 16:24 | 43.01779 | -68.88801 | 39899 ft | 451 kts | 253° |
| 2026-04-23 16:24 | 42.99795 | -68.95390 | 39899 ft | 450 kts | 253° |
| 2026-04-23 16:25 | 42.97409 | -69.03290 | 39903 ft | 449 kts | 253° |
| 2026-04-23 16:25 | 42.95021 | -69.11176 | 39903 ft | 449 kts | 253° |
| 2026-04-23 16:26 | 42.92241 | -69.20325 | 39893 ft | 449 kts | 253° |
| 2026-04-23 16:26 | 42.90232 | -69.26917 | 39906 ft | 450 kts | 253° |
| 2026-04-23 16:27 | 42.87823 | -69.34798 | 39906 ft | 450 kts | 253° |
| 2026-04-23 16:27 | 42.85410 | -69.42669 | 39905 ft | 450 kts | 253° |
| 2026-04-23 16:28 | 42.82991 | -69.50537 | 39905 ft | 450 kts | 253° |
| 2026-04-23 16:28 | 42.80581 | -69.58348 | 39908 ft | 450 kts | 253° |
| 2026-04-23 16:29 | 42.78154 | -69.66196 | 39909 ft | 450 kts | 253° |
| 2026-04-23 16:29 | 42.75720 | -69.74041 | 39909 ft | 449 kts | 253° |
| 2026-04-23 16:30 | 42.73284 | -69.81870 | 39916 ft | 449 kts | 253° |
| 2026-04-23 16:30 | 42.70827 | -69.89743 | 39909 ft | 449 kts | 254° |
| 2026-04-23 16:31 | 42.68397 | -69.97507 | 39915 ft | 449 kts | 253° |
| 2026-04-23 16:31 | 42.65944 | -70.05320 | 39915 ft | 449 kts | 253° |
| 2026-04-23 16:32 | 42.63469 | -70.13123 | 39922 ft | 449 kts | 253° |
| 2026-04-23 16:32 | 42.60986 | -70.20910 | 39893 ft | 449 kts | 254° |
| 2026-04-23 16:33 | 42.58508 | -70.28675 | 39917 ft | 448 kts | 254° |
| 2026-04-23 16:33 | 42.56025 | -70.36418 | 39913 ft | 447 kts | 254° |
| 2026-04-23 16:34 | 42.53536 | -70.44155 | 39912 ft | 447 kts | 254° |
| 2026-04-23 16:34 | 42.51043 | -70.51888 | 39910 ft | 447 kts | 254° |
| 2026-04-23 16:35 | 42.48554 | -70.59604 | 39916 ft | 446 kts | 255° |
| 2026-04-23 16:35 | 42.46082 | -70.67242 | 39913 ft | 445 kts | 255° |
| 2026-04-23 16:36 | 42.43590 | -70.74918 | 39916 ft | 445 kts | 255° |
| 2026-04-23 16:36 | 42.41094 | -70.82584 | 39919 ft | 445 kts | 254° |
| 2026-04-23 16:37 | 42.38592 | -70.90252 | 39922 ft | 445 kts | 255° |
| 2026-04-23 16:37 | 42.36121 | -70.97883 | 39923 ft | 439 kts | 258° |
| 2026-04-23 16:38 | 42.34178 | -71.05642 | 39925 ft | 434 kts | 261° |
| 2026-04-23 16:38 | 42.32324 | -71.13407 | 39925 ft | 434 kts | 261° |
| 2026-04-23 16:39 | 42.30470 | -71.21180 | 39936 ft | 434 kts | 261° |
| 2026-04-23 16:39 | 42.28624 | -71.28906 | 39931 ft | 435 kts | 261° |
| 2026-04-23 16:40 | 42.26762 | -71.36670 | 39935 ft | 434 kts | 261° |
| 2026-04-23 16:40 | 42.24899 | -71.44415 | 39939 ft | 433 kts | 261° |
| 2026-04-23 16:41 | 42.23034 | -71.52143 | 39943 ft | 433 kts | 261° |
| 2026-04-23 16:41 | 42.21164 | -71.59868 | 39939 ft | 433 kts | 261° |
| 2026-04-23 16:42 | 42.19291 | -71.67572 | 39945 ft | 431 kts | 261° |
| 2026-04-23 16:42 | 42.17418 | -71.75255 | 39950 ft | 431 kts | 261° |
| 2026-04-23 16:43 | 42.15540 | -71.82936 | 39946 ft | 432 kts | 261° |
| 2026-04-23 16:43 | 42.13655 | -71.90620 | 39956 ft | 432 kts | 261° |
| 2026-04-23 16:44 | 42.11765 | -71.98299 | 39953 ft | 432 kts | 261° |
| 2026-04-23 16:44 | 42.09878 | -72.05937 | 39954 ft | 432 kts | 261° |
| 2026-04-23 16:45 | 42.07970 | -72.13633 | 39957 ft | 433 kts | 261° |
| 2026-04-23 16:45 | 42.06061 | -72.21311 | 39953 ft | 433 kts | 261° |
| 2026-04-23 16:46 | 42.04143 | -72.29001 | 39924 ft | 433 kts | 261° |
| 2026-04-23 16:46 | 42.02213 | -72.36717 | 39959 ft | 436 kts | 261° |
| 2026-04-23 16:47 | 42.00270 | -72.44452 | 39960 ft | 436 kts | 260° |
| 2026-04-23 16:47 | 41.98325 | -72.52170 | 39965 ft | 436 kts | 260° |
| 2026-04-23 16:48 | 41.96375 | -72.59884 | 39962 ft | 436 kts | 260° |
| 2026-04-23 16:48 | 41.94416 | -72.67615 | 39960 ft | 438 kts | 261° |
| 2026-04-23 16:49 | 41.92533 | -72.75329 | 39961 ft | 437 kts | 262° |
| 2026-04-23 16:49 | 41.91619 | -72.79218 | 39835 ft | 437 kts | 262° |
| 2026-04-23 16:49 | 41.90701 | -72.83093 | 39597 ft | 433 kts | 262° |
| 2026-04-23 16:50 | 41.89787 | -72.86929 | 39231 ft | 430 kts | 262° |
| 2026-04-23 16:50 | 41.88874 | -72.90760 | 38707 ft | 432 kts | 262° |
| 2026-04-23 16:50 | 41.87958 | -72.94598 | 38080 ft | 433 kts | 263° |
| 2026-04-23 16:50 | 41.87035 | -72.98442 | 37505 ft | 432 kts | 264° |
| 2026-04-23 16:51 | 41.86115 | -73.02268 | 36964 ft | 431 kts | 264° |
| 2026-04-23 16:51 | 41.85194 | -73.06095 | 36402 ft | 431 kts | 264° |
| 2026-04-23 16:51 | 41.84274 | -73.09913 | 35808 ft | 432 kts | 265° |
| 2026-04-23 16:51 | 41.83345 | -73.13765 | 35183 ft | 433 kts | 265° |
| 2026-04-23 16:52 | 41.82415 | -73.17616 | 34521 ft | 436 kts | 265° |
| 2026-04-23 16:52 | 41.81476 | -73.21495 | 33815 ft | 438 kts | 265° |
| 2026-04-23 16:52 | 41.80533 | -73.25382 | 33052 ft | 440 kts | 265° |
| 2026-04-23 16:52 | 41.79585 | -73.29282 | 32316 ft | 440 kts | 265° |
| 2026-04-23 16:53 | 41.78633 | -73.33186 | 31552 ft | 441 kts | 264° |
| 2026-04-23 16:53 | 41.77680 | -73.37085 | 30945 ft | 439 kts | 263° |
| 2026-04-23 16:53 | 41.76729 | -73.40957 | 30457 ft | 435 kts | 263° |
| 2026-04-23 16:53 | 41.75785 | -73.44803 | 29884 ft | 432 kts | 263° |
| 2026-04-23 16:54 | 41.74854 | -73.48591 | 29341 ft | 427 kts | 263° |
| 2026-04-23 16:54 | 41.73940 | -73.52303 | 28799 ft | 422 kts | 263° |
| 2026-04-23 16:54 | 41.73025 | -73.56019 | 28293 ft | 417 kts | 263° |
| 2026-04-23 16:54 | 41.72120 | -73.59686 | 27773 ft | 413 kts | 262° |
| 2026-04-23 16:55 | 41.71225 | -73.63314 | 27267 ft | 408 kts | 262° |
| 2026-04-23 16:55 | 41.70335 | -73.66917 | 26727 ft | 405 kts | 262° |
| 2026-04-23 16:55 | 41.69454 | -73.70479 | 26242 ft | 401 kts | 262° |
| 2026-04-23 16:55 | 41.68579 | -73.74012 | 25730 ft | 398 kts | 262° |
| 2026-04-23 16:56 | 41.67707 | -73.77524 | 25223 ft | 396 kts | 261° |
| 2026-04-23 16:56 | 41.66842 | -73.81006 | 24708 ft | 393 kts | 261° |
| 2026-04-23 16:56 | 41.65992 | -73.84457 | 24225 ft | 389 kts | 262° |
| 2026-04-23 16:56 | 41.65182 | -73.87896 | 23736 ft | 386 kts | 262° |
| 2026-04-23 16:57 | 41.64395 | -73.91260 | 23191 ft | 384 kts | 262° |
| 2026-04-23 16:57 | 41.63596 | -73.94657 | 22660 ft | 380 kts | 262° |
| 2026-04-23 16:57 | 41.62804 | -73.98006 | 22178 ft | 376 kts | 261° |
| 2026-04-23 16:57 | 41.62021 | -74.01312 | 21665 ft | 372 kts | 261° |
| 2026-04-23 16:58 | 41.61243 | -74.04586 | 21201 ft | 368 kts | 261° |
| 2026-04-23 16:58 | 41.60472 | -74.07832 | 20734 ft | 364 kts | 261° |
| 2026-04-23 16:58 | 41.59706 | -74.11046 | 20231 ft | 361 kts | 261° |
| 2026-04-23 16:58 | 41.58946 | -74.14234 | 19776 ft | 359 kts | 261° |
| 2026-04-23 16:59 | 41.58189 | -74.17403 | 19301 ft | 356 kts | 261° |
| 2026-04-23 16:59 | 41.57438 | -74.20543 | 18828 ft | 354 kts | 260° |
| 2026-04-23 16:59 | 41.56691 | -74.23661 | 18366 ft | 351 kts | 260° |
| 2026-04-23 16:59 | 41.55957 | -74.26719 | 17845 ft | 349 kts | 260° |
| 2026-04-23 17:00 | 41.55119 | -74.29753 | 17368 ft | 352 kts | 253° |
| 2026-04-23 17:00 | 41.53713 | -74.32504 | 16901 ft | 367 kts | 235° |
| 2026-04-23 17:00 | 41.51593 | -74.34550 | 16337 ft | 387 kts | 213° |
| 2026-04-23 17:00 | 41.49050 | -74.35819 | 15825 ft | 393 kts | 206° |
| 2026-04-23 17:01 | 41.46444 | -74.36912 | 15293 ft | 392 kts | 205° |
| 2026-04-23 17:01 | 41.43844 | -74.37995 | 14768 ft | 391 kts | 205° |
| 2026-04-23 17:01 | 41.41242 | -74.39093 | 14221 ft | 391 kts | 205° |
| 2026-04-23 17:01 | 41.38658 | -74.40198 | 13772 ft | 388 kts | 205° |
| 2026-04-23 17:02 | 41.36961 | -74.40922 | 13436 ft | 387 kts | 205° |
| 2026-04-23 17:02 | 41.33545 | -74.42379 | 12801 ft | 382 kts | 204° |
| 2026-04-23 17:02 | 41.31033 | -74.43453 | 12369 ft | 377 kts | 204° |
| 2026-04-23 17:02 | 41.28539 | -74.44521 | 11930 ft | 374 kts | 204° |
| 2026-04-23 17:03 | 41.26105 | -74.45571 | 11483 ft | 370 kts | 204° |
| 2026-04-23 17:03 | 41.23665 | -74.46612 | 11184 ft | 363 kts | 204° |
| 2026-04-23 17:03 | 41.21296 | -74.47617 | 11053 ft | 351 kts | 204° |
| 2026-04-23 17:03 | 41.19002 | -74.48591 | 10926 ft | 340 kts | 205° |
| 2026-04-23 17:04 | 41.16781 | -74.49538 | 10794 ft | 330 kts | 205° |
| 2026-04-23 17:04 | 41.14642 | -74.50454 | 10648 ft | 322 kts | 205° |
| 2026-04-23 17:04 | 41.12515 | -74.51362 | 10425 ft | 316 kts | 205° |
| 2026-04-23 17:04 | 41.10445 | -74.52241 | 10202 ft | 310 kts | 205° |
| 2026-04-23 17:05 | 41.08387 | -74.53121 | 9916 ft | 309 kts | 205° |
| 2026-04-23 17:05 | 41.06292 | -74.53832 | 9559 ft | 314 kts | 194° |
| 2026-04-23 17:05 | 41.04104 | -74.54116 | 9252 ft | 315 kts | 189° |
| 2026-04-23 17:05 | 41.01928 | -74.54307 | 8946 ft | 313 kts | 189° |
| 2026-04-23 17:06 | 40.99765 | -74.54495 | 8656 ft | 310 kts | 189° |
| 2026-04-23 17:06 | 40.97643 | -74.54681 | 8303 ft | 308 kts | 189° |
| 2026-04-23 17:06 | 40.95504 | -74.54870 | 8025 ft | 306 kts | 189° |
| 2026-04-23 17:06 | 40.93383 | -74.55060 | 7757 ft | 304 kts | 189° |
| 2026-04-23 17:07 | 40.91282 | -74.55254 | 7442 ft | 302 kts | 189° |
| 2026-04-23 17:07 | 40.89183 | -74.55451 | 7153 ft | 301 kts | 188° |
| 2026-04-23 17:07 | 40.87101 | -74.55644 | 6880 ft | 299 kts | 188° |
| 2026-04-23 17:07 | 40.85039 | -74.55832 | 6618 ft | 295 kts | 188° |
| 2026-04-23 17:08 | 40.82991 | -74.55976 | 6301 ft | 295 kts | 185° |
| 2026-04-23 17:08 | 40.80975 | -74.55926 | 5974 ft | 294 kts | 181° |
| 2026-04-23 17:08 | 40.78908 | -74.55815 | 5707 ft | 290 kts | 180° |
| 2026-04-23 17:08 | 40.76923 | -74.55703 | 5391 ft | 287 kts | 180° |
| 2026-04-23 17:09 | 40.74937 | -74.55593 | 5075 ft | 284 kts | 180° |
| 2026-04-23 17:09 | 40.72978 | -74.55485 | 4837 ft | 279 kts | 180° |
| 2026-04-23 17:09 | 40.71025 | -74.55378 | 4433 ft | 280 kts | 180° |
| 2026-04-23 17:09 | 40.69081 | -74.55272 | 4112 ft | 278 kts | 180° |
| 2026-04-23 17:10 | 40.67182 | -74.55171 | 3983 ft | 276 kts | 179° |
| 2026-04-23 17:10 | 40.65885 | -74.55074 | 3976 ft | 277 kts | 176° |
| 2026-04-23 17:10 | 40.63982 | -74.54653 | 3978 ft | 278 kts | 169° |
| 2026-04-23 17:10 | 40.61477 | -74.53927 | 3984 ft | 277 kts | 169° |
| 2026-04-23 17:11 | 40.59635 | -74.53382 | 3973 ft | 265 kts | 169° |
| 2026-04-23 17:11 | 40.57885 | -74.52867 | 3967 ft | 251 kts | 169° |
| 2026-04-23 17:11 | 40.56227 | -74.52383 | 3972 ft | 237 kts | 169° |
| 2026-04-23 17:11 | 40.55144 | -74.52068 | 3975 ft | 235 kts | 169° |
| 2026-04-23 17:12 | 40.53560 | -74.51590 | 3721 ft | 241 kts | 166° |
| 2026-04-23 17:12 | 40.52064 | -74.50578 | 3444 ft | 242 kts | 142° |
| 2026-04-23 17:12 | 40.50836 | -74.49109 | 3283 ft | 237 kts | 127° |
| 2026-04-23 17:12 | 40.50116 | -74.47196 | 3146 ft | 233 kts | 108° |
| 2026-04-23 17:13 | 40.49814 | -74.45126 | 3012 ft | 230 kts | 89° |
| 2026-04-23 17:13 | 40.49875 | -74.43036 | 3002 ft | 229 kts | 82° |
| 2026-04-23 17:13 | 40.50049 | -74.40943 | 3007 ft | 229 kts | 81° |
| 2026-04-23 17:13 | 40.50258 | -74.38875 | 3008 ft | 228 kts | 79° |
| 2026-04-23 17:14 | 40.50486 | -74.36811 | 3008 ft | 229 kts | 79° |
| 2026-04-23 17:14 | 40.50740 | -74.34753 | 3020 ft | 228 kts | 77° |
| 2026-04-23 17:14 | 40.51129 | -74.32740 | 3008 ft | 223 kts | 70° |
| 2026-04-23 17:14 | 40.51691 | -74.30922 | 3020 ft | 211 kts | 60° |
| 2026-04-23 17:15 | 40.52399 | -74.29310 | 3024 ft | 194 kts | 53° |
| 2026-04-23 17:15 | 40.53196 | -74.27939 | 3011 ft | 190 kts | 45° |
| 2026-04-23 17:15 | 40.54114 | -74.26707 | 3014 ft | 188 kts | 38° |
| 2026-04-23 17:15 | 40.55130 | -74.25636 | 2905 ft | 187 kts | 31° |
| 2026-04-23 17:16 | 40.56246 | -74.24786 | 2588 ft | 184 kts | 22° |
| 2026-04-23 17:16 | 40.57393 | -74.24036 | 2330 ft | 184 kts | 24° |
| 2026-04-23 17:16 | 40.58521 | -74.23294 | 2070 ft | 177 kts | 21° |
| 2026-04-23 17:16 | 40.59603 | -74.22614 | 1820 ft | 167 kts | 21° |
| 2026-04-23 17:17 | 40.60598 | -74.21979 | 1628 ft | 152 kts | 22° |
| 2026-04-23 17:17 | 40.61516 | -74.21395 | 1422 ft | 143 kts | 22° |
| 2026-04-23 17:17 | 40.62384 | -74.20843 | 1248 ft | 135 kts | 23° |
| 2026-04-23 17:17 | 40.63234 | -74.20301 | 1074 ft | 137 kts | 22° |
| 2026-04-23 17:18 | 40.64938 | -74.19203 | 695 ft | 135 kts | 18° |
| 2026-04-23 17:18 | 40.65806 | -74.18658 | 535 ft | 141 kts | 13° |
| 2026-04-23 17:18 | 40.66667 | -74.18102 | 360 ft | 133 kts | 12° |
| 2026-04-23 17:19 | 40.67490 | -74.17591 | 172 ft | 129 kts | 11° |
| 2026-04-23 17:19 | 40.68294 | -74.17076 | 30 ft | 126 kts | 14° |
| 2026-04-23 17:19 | 40.69168 | -74.16580 | 267 ft | 153 kts | 10° |
| 2026-04-23 17:19 | 40.70237 | -74.15992 | 846 ft | 179 kts | 12° |
| 2026-04-23 17:20 | 40.71492 | -74.15359 | 1446 ft | 205 kts | 15° |
| 2026-04-23 17:20 | 40.73712 | -74.12658 | 2850 ft | 221 kts | 44° |
| 2026-04-23 17:21 | 40.76170 | -74.10667 | 3561 ft | 202 kts | 348° |
| 2026-04-23 17:21 | 40.77429 | -74.11416 | 3153 ft | 204 kts | 308° |
| 2026-04-23 17:21 | 40.78235 | -74.15035 | 3001 ft | 215 kts | 275° |
| 2026-04-23 17:22 | 40.78409 | -74.17013 | 3008 ft | 219 kts | 275° |
| 2026-04-23 17:22 | 40.77350 | -74.20600 | 2989 ft | 223 kts | 220° |
| 2026-04-23 17:23 | 40.74755 | -74.23086 | 3003 ft | 234 kts | 214° |
| 2026-04-23 17:23 | 40.73346 | -74.24161 | 3003 ft | 235 kts | 206° |
| 2026-04-23 17:23 | 40.70385 | -74.25987 | 2997 ft | 236 kts | 205° |
| 2026-04-23 17:24 | 40.68887 | -74.26885 | 2993 ft | 236 kts | 204° |
| 2026-04-23 17:24 | 40.67402 | -74.27799 | 3003 ft | 235 kts | 204° |
| 2026-04-23 17:24 | 40.64487 | -74.29702 | 3007 ft | 235 kts | 208° |
| 2026-04-23 17:25 | 40.61640 | -74.31763 | 2964 ft | 227 kts | 209° |
| 2026-04-23 17:25 | 40.60326 | -74.32767 | 2998 ft | 211 kts | 210° |
| 2026-04-23 17:26 | 40.57925 | -74.34495 | 3008 ft | 193 kts | 197° |
| 2026-04-23 17:26 | 40.55705 | -74.33119 | 2987 ft | 191 kts | 106° |
| 2026-04-23 17:27 | 40.56071 | -74.29764 | 2998 ft | 196 kts | 71° |
| 2026-04-23 17:27 | 40.56509 | -74.28095 | 2852 ft | 190 kts | 61° |
| 2026-04-23 17:27 | 40.56827 | -74.26381 | 2475 ft | 194 kts | 72° |
| 2026-04-23 17:27 | 40.57187 | -74.24713 | 2328 ft | 187 kts | 46° |
| 2026-04-23 17:28 | 40.58112 | -74.23574 | 2177 ft | 181 kts | 22° |
| 2026-04-23 17:28 | 40.59221 | -74.22894 | 1929 ft | 174 kts | 14° |
| 2026-04-23 17:28 | 40.60286 | -74.22203 | 1706 ft | 165 kts | 18° |
| 2026-04-23 17:28 | 40.61289 | -74.21568 | 1464 ft | 155 kts | 16° |
| 2026-04-23 17:29 | 40.62231 | -74.20968 | 1276 ft | 145 kts | 19° |
| 2026-04-23 17:29 | 40.63119 | -74.20395 | 1104 ft | 141 kts | 18° |
| 2026-04-23 17:29 | 40.64874 | -74.19268 | 725 ft | 140 kts | 19° |
| 2026-04-23 17:30 | 40.65768 | -74.18704 | 564 ft | 145 kts | 17° |
| 2026-04-23 17:30 | 40.67484 | -74.17589 | 184 ft | 133 kts | 14° |
| 2026-04-23 17:30 | 40.68324 | -74.17058 | 30 ft | 128 kts | 17° |
| 2026-04-23 17:31 | 40.68890 | -74.16706 | 30 ft | 49 kts | 26° |
| 2026-04-23 17:31 | 40.69084 | -74.16591 | 27 ft | 22 kts | 15° |
| 2026-04-23 17:31 | 40.69195 | -74.16588 | 28 ft | 15 kts | 357° |
| 2026-04-23 17:31 | 40.69298 | -74.16595 | 27 ft | 12 kts | 356° |
| 2026-04-23 17:32 | 40.69374 | -74.16608 | 27 ft | 7 kts | 343° |
| 2026-04-23 17:32 | 40.69395 | -74.16631 | 27 ft | 5 kts | 311° |
| 2026-04-23 17:32 | 40.69431 | -74.16706 | 27 ft | 14 kts | 297° |
| 2026-04-23 17:32 | 40.69472 | -74.16814 | 27 ft | 6 kts | 295° |
| 2026-04-23 17:33 | 40.69475 | -74.16825 | 27 ft | 0 kts | 295° |
| 2026-04-23 17:33 | 40.69479 | -74.16834 | 27 ft | 3 kts | 295° |
| 2026-04-23 17:33 | 40.69503 | -74.16902 | 26 ft | 10 kts | 295° |
| 2026-04-23 17:33 | 40.69488 | -74.16983 | 32 ft | 12 kts | 220° |
| 2026-04-23 17:34 | 40.69376 | -74.17057 | 29 ft | 21 kts | 206° |
| 2026-04-23 17:34 | 40.69265 | -74.17126 | 30 ft | 12 kts | 212° |
| 2026-04-23 17:34 | 40.69259 | -74.17286 | 29 ft | 10 kts | 257° |
| 2026-04-23 17:35 | 40.69249 | -74.17336 | 28 ft | 2 kts | 256° |
| 2026-04-23 17:35 | 40.69248 | -74.17343 | 27 ft | 0 kts | 257° |